SU6565 / VQ-BAR 7700 Squawk Report (17th of July, 2020)

Aircraft A319 Reg No. VQ-BAR Age 19 years old
Model A319 Jet engines 2 First flight 09-04-01
Registered 03-08-11 Rollout 04-01 Delivered 09-05-01
Construction No. 1488 Line No. N/A Series 111
ADSHEX 4248E8 Airline name Rossiya Owner Wells Fargo Trust Co NA Trustee
Airfield based St. Petersburg-Pulkovo~St. Petersburg~RA First tracked N/A

Flight history for VQ-BAR

Route Flight No Date Playback
Omsk (OMS) - Pulkovo (LED) SU6472 2020-08-09 03:28:00
Pulkovo (LED) - Omsk (OMS) SU6471 2020-08-09 01:19:00
Orenburg (REN) - Pulkovo (LED) SU6454 2020-08-08 04:03:00
Pulkovo (LED) - Orenburg (REN) SU6453 2020-08-08 01:50:00
Simferopol Intl (SIP) - Pulkovo (LED) SU6896 2020-08-07 21:53:00
Pulkovo (LED) - Simferopol Intl (SIP) SU6895 2020-08-07 15:41:00
Kurumoch (KUF) - Pulkovo (LED) SU6234 2020-08-07 11:29:00
Pulkovo (LED) - Kurumoch (KUF) SU6233 2020-08-07 07:56:00
Koltsovo (SVX) - Pulkovo (LED) SU6402 2020-08-07 03:55:00
Pulkovo (LED) - Koltsovo (SVX) SU6401 2020-08-06 23:31:00
Vityazevo (AAQ) - Pulkovo (LED) SU6206 2020-08-06 21:24:00
Pulkovo (LED) - Vityazevo (AAQ) SU6205 2020-08-06 14:11:00
Kurumoch (KUF) - Pulkovo (LED) SU6232 2020-08-06 03:57:00
Pulkovo (LED) - Kurumoch (KUF) SU6231 2020-08-06 02:06:00
Murmansk (MMK) - Pulkovo (LED) SU6346 2020-08-05 18:46:00
Pulkovo (LED) - Murmansk (MMK) SU6345 2020-08-05 17:09:00
Gelendzhik Airport (GDZ) - Pulkovo (LED) SU6216 2020-08-05 12:07:00
Pulkovo (LED) - Gelendzhik Airport (GDZ) SU6215 2020-08-05 09:36:00
Tolmachevo (OVB) - Pulkovo (LED) SU6542 2020-08-05 04:09:00
Pulkovo (LED) - Tolmachevo (OVB) SU6541 2020-08-04 23:50:00
Time Lat Lon Altitude Heading Speed Vertical Rate
2020-07-17 11:44:56 GMT 43.946430 39.265923 16,425 191 327 -2112
2020-07-17 11:44:36 GMT 43.977173 39.274078 17,050 191 333 -1536
2020-07-17 11:44:24 GMT 43.994843 39.278740 17,350 191 334 -1536
2020-07-17 11:44:16 GMT 44.006973 39.281937 17,600 191 338 -1792
2020-07-17 11:44:07 GMT 44.022449 39.285999 17,900 191 341 -1728
2020-07-17 11:43:56 GMT 44.038834 39.290302 18,200 191 343 -2048
2020-07-17 11:43:45 GMT 44.055454 39.294762 18,600 191 344 -2176
2020-07-17 11:43:36 GMT 44.070957 39.298817 18,950 191 344 -2112
2020-07-17 11:43:25 GMT 44.087082 39.303013 19,300 191 346 -2048
2020-07-17 11:43:14 GMT 44.103607 39.307423 19,650 191 348 -1920
2020-07-17 11:43:04 GMT 44.119602 39.311630 19,950 191 351 -1856
2020-07-17 11:42:54 GMT 44.136292 39.316044 20,325 191 352 -2368
2020-07-17 11:42:50 GMT 44.141556 39.317451 20,450 191 352 -2432
2020-07-17 11:42:44 GMT 44.152191 39.320267 20,725 191 352 -2240
2020-07-17 11:42:40 GMT 44.157639 39.321705 20,825 191 352 -2112
2020-07-17 11:42:34 GMT 44.168716 39.324646 21,050 191 354 -1792
2020-07-17 11:42:31 GMT 44.174423 39.326138 21,175 191 355 -1728
2020-07-17 11:42:24 GMT 44.185913 39.329201 21,375 191 357 -1856
2020-07-17 11:42:20 GMT 44.190170 39.330353 21,450 192 358 -1920
2020-07-17 11:42:13 GMT 44.202469 39.333733 21,725 192 360 -2112
2020-07-17 11:42:10 GMT 44.207611 39.335175 21,825 192 360 -2304
2020-07-17 11:42:00 GMT 44.223740 39.339428 22,225 191 361 -2496
2020-07-17 11:41:49 GMT 44.240570 39.343807 22,650 191 361 -2368
2020-07-17 11:41:40 GMT 44.257828 39.348385 23,075 191 362 -2304
2020-07-17 11:41:29 GMT 44.275043 39.352894 23,475 191 363 -2368
2020-07-17 11:41:17 GMT 44.296143 39.358521 23,975 191 365 -2304
2020-07-17 11:41:08 GMT 44.308960 39.361855 24,250 191 367 -2112
2020-07-17 11:41:05 GMT 44.314499 39.363293 24,350 191 368 -2048
2020-07-17 11:40:59 GMT 44.325645 39.366291 24,575 191 370 -2048
2020-07-17 11:40:55 GMT 44.330208 39.367496 24,675 191 371 -2112
2020-07-17 11:40:45 GMT 44.347916 39.372253 25,075 191 373 -2368
2020-07-17 11:40:38 GMT 44.359818 39.375458 25,350 191 375 -2304
2020-07-17 11:40:35 GMT 44.364899 39.376831 25,475 191 376 -2368
2020-07-17 11:40:25 GMT 44.382809 39.381565 25,900 191 377 -2496
2020-07-17 11:40:15 GMT 44.400871 39.386387 26,325 191 379 -2432
2020-07-17 11:40:08 GMT 44.413193 39.389648 26,625 191 380 -2688
2020-07-17 11:40:03 GMT 44.419418 39.391281 26,800 191 380 -2688
2020-07-17 11:39:57 GMT 44.430313 39.394226 27,075 191 380 -2816
2020-07-17 11:39:53 GMT 44.436440 39.395901 27,250 191 380 -2752
2020-07-17 11:39:47 GMT 44.447800 39.398869 27,525 191 381 -2624
2020-07-17 11:39:44 GMT 44.454346 39.400635 27,700 191 381 -2560
2020-07-17 11:39:36 GMT 44.466156 39.403774 27,975 191 382 -2432
2020-07-17 11:39:33 GMT 44.472427 39.405411 28,125 191 384 -2304
2020-07-17 11:39:26 GMT 44.485382 39.408810 28,400 191 386 -1984
2020-07-17 11:39:23 GMT 44.489639 39.409920 28,475 191 387 -1984
2020-07-17 11:39:16 GMT 44.502136 39.413124 28,700 191 389 -2112
2020-07-17 11:39:13 GMT 44.507812 39.414562 28,825 191 389 -2240
2020-07-17 11:39:06 GMT 44.519531 39.417637 29,075 191 390 -2240
2020-07-17 11:39:03 GMT 44.526077 39.419338 29,200 191 391 -2112
2020-07-17 11:38:55 GMT 44.538296 39.422428 29,450 190 393 -2304
2020-07-17 11:38:52 GMT 44.544579 39.423836 29,575 188 394 -2368
2020-07-17 11:38:45 GMT 44.556217 39.425575 30,875 181 399 -2176
2020-07-17 11:38:42 GMT 44.563389 39.426113 29,950 181 399 -2176
2020-07-17 11:38:35 GMT 44.578033 39.425747 30,250 176 401 -2368
2020-07-17 11:38:32 GMT 44.583618 39.425091 30,350 174 403 -2432
2020-07-17 11:38:25 GMT 44.594063 39.423233 30,575 170 405 -2176
2020-07-17 11:38:21 GMT 44.601280 39.421425 30,875 164 410 -1344
2020-07-17 11:38:14 GMT 44.613941 39.417271 30,900 165 409 -1472
2020-07-17 11:38:11 GMT 44.620506 39.414726 30,975 164 410 -704
2020-07-17 11:38:05 GMT 44.631306 39.410439 31,000 164 413 -64
2020-07-17 11:38:01 GMT 44.639145 39.407372 31,000 164 414 0
2020-07-17 11:37:55 GMT 44.650360 39.402988 31,000 164 413 64
2020-07-17 11:37:50 GMT 44.658585 39.399853 31,000 164 413 128
2020-07-17 11:37:44 GMT 44.669540 39.395599 30,975 164 414 -128
2020-07-17 11:37:39 GMT 44.681629 39.390877 31,000 164 414 0
2020-07-17 11:37:33 GMT 44.696457 39.385136 31,000 164 412 0
2020-07-17 11:37:29 GMT 44.696457 39.385136 31,000 164 412 0
2020-07-17 11:37:23 GMT 44.708588 39.380428 31,000 164 410 0
2020-07-17 11:37:20 GMT 44.715729 39.377617 31,000 164 410 128
2020-07-17 11:37:13 GMT 44.726601 39.373390 30,975 164 409 0
2020-07-17 11:37:08 GMT 44.735779 39.369835 31,000 164 408 0
2020-07-17 11:37:04 GMT 44.744339 39.366501 30,975 164 409 -64
2020-07-17 11:36:58 GMT 44.753448 39.362968 31,000 164 408 -128
2020-07-17 11:36:52 GMT 44.763977 39.358849 31,025 164 405 -192
2020-07-17 11:36:48 GMT 44.772732 39.355373 31,050 164 405 -192
2020-07-17 11:36:42 GMT 44.781902 39.351753 31,075 164 404 -576
2020-07-17 11:36:38 GMT 44.790436 39.348320 31,125 163 404 -960
2020-07-17 11:36:32 GMT 44.800011 39.344387 31,225 163 404 -1344
2020-07-17 11:36:28 GMT 44.809067 39.340603 31,350 163 404 -1344
2020-07-17 11:36:23 GMT 44.817982 39.336815 31,450 163 405 -1344
2020-07-17 11:36:17 GMT 44.827152 39.333065 31,575 164 406 -1280
2020-07-17 11:36:12 GMT 44.836929 39.329380 31,700 165 406 -1216
2020-07-17 11:36:05 GMT 44.849728 39.324959 31,875 167 407 -1344
2020-07-17 11:35:55 GMT 44.867603 39.319668 32,050 168 408 -1280
2020-07-17 11:35:51 GMT 44.875053 39.317657 32,125 169 410 -1344
2020-07-17 11:35:47 GMT 44.884598 39.315109 32,275 169 413 -1920
2020-07-17 11:35:41 GMT 44.892975 39.312809 32,425 168 415 -2048
2020-07-17 11:35:35 GMT 44.905243 39.309345 32,700 168 418 -2048
2020-07-17 11:35:32 GMT 44.912903 39.307072 32,775 167 421 -2048
2020-07-17 11:35:25 GMT 44.924652 39.303459 32,975 167 424 -2048
2020-07-17 11:35:21 GMT 44.931988 39.301109 33,125 166 426 -2048
2020-07-17 11:35:15 GMT 44.943905 39.297157 33,325 166 430 -1984
2020-07-17 11:35:11 GMT 44.951447 39.294544 33,475 166 431 -1984
2020-07-17 11:35:05 GMT 44.964935 39.289791 33,700 165 434 -2112
2020-07-17 11:35:00 GMT 44.971836 39.287312 33,825 166 435 -2496
2020-07-17 11:34:54 GMT 44.983799 39.283360 34,375 168 432 -3712
2020-07-17 11:34:49 GMT 44.993763 39.280678 34,450 171 428 -3840
2020-07-17 11:34:45 GMT 45.004074 39.278870 34,750 175 424 -3392
2020-07-17 11:34:40 GMT 45.011406 39.278133 34,950 177 422 -3008
2020-07-17 11:34:33 GMT 45.026581 39.278065 35,275 183 419 -2048
2020-07-17 11:34:29 GMT 45.032639 39.278542 35,375 185 418 -1536
2020-07-17 11:34:23 GMT 45.044830 39.280476 35,625 190 416 -1088
2020-07-17 11:34:19 GMT 45.051727 39.282139 35,575 191 415 -1024
2020-07-17 11:34:13 GMT 45.063869 39.285568 35,750 192 415 -1024
2020-07-17 11:34:09 GMT 45.070587 39.287502 35,750 192 415 -1024
2020-07-17 11:34:04 GMT 45.081665 39.290771 35,850 192 415 -1024
2020-07-17 11:34:00 GMT 45.089172 39.292931 35,925 192 415 -1024
2020-07-17 11:33:52 GMT 45.103531 39.297157 36,050 192 414 -960
2020-07-17 11:33:49 GMT 45.108902 39.298683 36,100 192 414 -960
2020-07-17 11:33:42 GMT 45.121445 39.302280 36,200 192 414 -960
2020-07-17 11:33:37 GMT 45.131058 39.304962 36,275 192 413 -960
2020-07-17 11:33:32 GMT 45.141724 39.307903 36,375 192 413 -960
2020-07-17 11:33:29 GMT 45.146805 39.309345 36,425 192 413 -896
2020-07-17 11:33:22 GMT 45.159813 39.312965 36,525 192 413 -1024
2020-07-17 11:33:18 GMT 45.166935 39.315044 36,600 192 413 -1024
2020-07-17 11:33:09 GMT 45.185280 39.320271 36,725 192 414 -1024
2020-07-17 11:33:02 GMT 45.199265 39.324318 36,850 192 415 -1024
2020-07-17 11:32:57 GMT 45.205761 39.326164 36,900 192 416 -1088
2020-07-17 11:32:50 GMT 45.219170 39.329983 37,000 192 417 -256
2020-07-17 11:32:47 GMT 45.225407 39.331726 37,025 192 417 -128
2020-07-17 11:32:41 GMT 45.235703 39.334717 37,025 192 417 -64
2020-07-17 11:32:38 GMT 45.244678 39.337284 37,025 192 417 -64
2020-07-17 11:32:31 GMT 45.258690 39.341236 37,025 192 417 64
2020-07-17 11:32:26 GMT 45.264450 39.342892 37,025 192 417 128
2020-07-17 11:32:17 GMT 45.285503 39.348942 37,000 192 417 64
2020-07-17 11:32:09 GMT 45.297749 39.352489 37,000 192 417 -64
2020-07-17 11:32:04 GMT 45.317764 39.358253 37,025 192 416 -64
2020-07-17 11:31:59 GMT 45.317764 39.358253 37,025 192 416 -64
2020-07-17 11:31:50 GMT 45.333408 39.362740 37,025 192 416 -64
2020-07-17 11:31:46 GMT 45.339340 39.364471 37,025 192 415 0
2020-07-17 11:31:40 GMT 45.351467 39.368034 37,025 192 415 64
2020-07-17 11:31:37 GMT 45.359436 39.370358 37,025 192 414 64
2020-07-17 11:31:33 GMT 45.364037 39.371716 37,025 192 414 64
2020-07-17 11:31:28 GMT 45.375488 39.375069 37,000 192 414 64
2020-07-17 11:31:24 GMT 45.384335 39.377682 37,000 192 414 0
2020-07-17 11:31:19 GMT 45.390244 39.379448 37,000 192 415 0
2020-07-17 11:31:16 GMT 45.396904 39.381363 37,000 192 415 -64
2020-07-17 11:31:12 GMT 45.403564 39.383305 37,000 192 415 0
2020-07-17 11:31:06 GMT 45.424255 39.389126 37,025 192 414 0
2020-07-17 11:31:03 GMT 45.424255 39.389126 37,025 192 414 0
2020-07-17 11:30:56 GMT 45.435928 39.392395 37,025 192 414 -64
2020-07-17 11:30:49 GMT 45.447647 39.395699 37,025 193 413 0
2020-07-17 11:30:45 GMT 45.454491 39.397980 37,025 194 412 0
2020-07-17 11:30:38 GMT 45.467525 39.402866 37,025 197 410 64
2020-07-17 11:30:35 GMT 45.473236 39.405342 37,025 198 409 64
2020-07-17 11:30:31 GMT 45.482281 39.409634 37,000 200 407 128
2020-07-17 11:30:28 GMT 45.485123 39.411106 37,000 201 407 128
2020-07-17 11:30:23 GMT 45.504253 39.422028 37,000 204 405 0
2020-07-17 11:30:17 GMT 45.504253 39.422028 37,000 204 405 0
2020-07-17 11:30:14 GMT 45.509933 39.425575 37,000 204 404 0
2020-07-17 11:30:09 GMT 45.518417 39.430847 37,000 204 404 0
2020-07-17 11:30:05 GMT 45.526878 39.436028 37,000 204 404 64
2020-07-17 11:30:01 GMT 45.532104 39.439217 37,000 204 404 0
2020-07-17 11:29:58 GMT 45.537865 39.442726 37,000 204 403 64
2020-07-17 11:29:54 GMT 45.544056 39.446480 37,000 204 403 64
2020-07-17 11:29:51 GMT 45.550713 39.450600 36,975 204 402 64
2020-07-17 11:29:47 GMT 45.555084 39.453243 36,975 204 402 64
2020-07-17 11:29:44 GMT 45.561840 39.457329 36,975 204 402 64
2020-07-17 11:29:40 GMT 45.567657 39.460899 36,975 204 401 0
2020-07-17 11:29:37 GMT 45.573029 39.464230 36,975 204 402 0
2020-07-17 11:29:33 GMT 45.579987 39.468517 36,975 204 402 0
2020-07-17 11:29:30 GMT 45.585209 39.471748 36,975 204 401 0
2020-07-17 11:29:27 GMT 45.590282 39.474907 36,975 204 401 0
2020-07-17 11:29:23 GMT 45.596428 39.478683 36,975 204 401 -64
2020-07-17 11:29:19 GMT 45.603287 39.482986 36,975 204 401 -64
2020-07-17 11:29:16 GMT 45.608231 39.486004 36,975 204 400 -64
2020-07-17 11:29:13 GMT 45.614822 39.490154 36,975 204 400 -64
2020-07-17 11:29:10 GMT 45.619984 39.493378 36,975 204 399 -64
2020-07-17 11:29:06 GMT 45.625351 39.496655 37,000 204 399 0
2020-07-17 11:29:02 GMT 45.634827 39.502483 36,975 204 399 0
2020-07-17 11:28:56 GMT 45.643074 39.507591 36,975 204 399 0
2020-07-17 11:28:52 GMT 45.649822 39.511780 36,975 204 398 0
2020-07-17 11:28:49 GMT 45.655106 39.515144 36,975 204 398 -64
2020-07-17 11:28:41 GMT 45.667419 39.522781 37,000 204 398 -64
2020-07-17 11:28:36 GMT 45.675983 39.528053 37,000 204 398 64
2020-07-17 11:28:31 GMT 45.685619 39.533958 36,975 204 398 64
2020-07-17 11:28:27 GMT 45.693283 39.538654 36,975 204 398 0
2020-07-17 11:28:20 GMT 45.703033 39.544670 36,975 204 398 -64
2020-07-17 11:28:15 GMT 45.711868 39.550110 37,000 204 399 -128
2020-07-17 11:28:10 GMT 45.719559 39.554901 37,000 204 398 -128
2020-07-17 11:28:06 GMT 45.728031 39.560120 37,000 204 398 -64
2020-07-17 11:28:01 GMT 45.735352 39.564716 37,025 204 398 64
2020-07-17 11:27:58 GMT 45.742950 39.569405 37,000 204 398 64
2020-07-17 11:27:55 GMT 45.746418 39.571587 37,000 204 398 64
2020-07-17 11:27:49 GMT 45.756332 39.577835 37,000 204 398 64
2020-07-17 11:27:46 GMT 45.762432 39.581612 37,000 204 398 64
2020-07-17 11:27:40 GMT 45.771694 39.587379 37,000 204 398 64
2020-07-17 11:27:35 GMT 45.779797 39.592461 36,975 204 399 -64
2020-07-17 11:27:30 GMT 45.788410 39.597816 37,000 204 399 -64
2020-07-17 11:27:25 GMT 45.797020 39.603172 37,000 204 399 -64
2020-07-17 11:27:19 GMT 45.806519 39.609077 37,000 204 398 0
2020-07-17 11:27:14 GMT 45.814865 39.614220 37,000 204 398 64
2020-07-17 11:27:09 GMT 45.823288 39.619446 37,000 204 397 64
2020-07-17 11:27:04 GMT 45.833332 39.625694 37,000 204 397 64
2020-07-17 11:27:01 GMT 45.838486 39.628891 37,000 204 398 64
2020-07-17 11:26:58 GMT 45.841187 39.630566 37,000 204 398 0
2020-07-17 11:26:54 GMT 45.848099 39.634853 37,000 204 398 0
2020-07-17 11:26:48 GMT 45.858982 39.641624 37,000 204 398 0
2020-07-17 11:26:45 GMT 45.864708 39.645195 37,000 204 398 0
2020-07-17 11:26:42 GMT 45.868244 39.647461 37,000 204 398 0
2020-07-17 11:26:38 GMT 45.875183 39.651787 37,000 204 398 0
2020-07-17 11:26:35 GMT 45.883282 39.656868 37,000 204 398 -64
2020-07-17 11:26:28 GMT 45.891895 39.662292 37,000 204 398 -64
2020-07-17 11:26:24 GMT 45.900055 39.667412 37,000 204 398 -64
2020-07-17 11:26:18 GMT 45.909260 39.673210 37,000 204 398 -64
2020-07-17 11:26:14 GMT 45.917816 39.678532 37,000 204 399 0
2020-07-17 11:26:08 GMT 45.926670 39.684059 37,000 204 399 64
2020-07-17 11:26:02 GMT 45.937141 39.690582 37,000 204 399 0
2020-07-17 11:25:57 GMT 45.944687 39.695278 37,000 204 399 0
2020-07-17 11:25:53 GMT 45.953018 39.700470 37,000 204 398 0
2020-07-17 11:25:47 GMT 45.961349 39.705730 37,000 204 398 0
2020-07-17 11:25:44 GMT 45.967941 39.709816 37,000 204 398 0
2020-07-17 11:25:37 GMT 45.978340 39.716331 37,000 204 399 0
2020-07-17 11:25:32 GMT 45.987606 39.722099 37,000 204 398 0
2020-07-17 11:25:27 GMT 45.995819 39.727234 37,000 204 398 0
2020-07-17 11:25:21 GMT 46.006119 39.733730 37,000 204 399 64
2020-07-17 11:25:17 GMT 46.013115 39.738167 37,000 204 399 64
2020-07-17 11:25:12 GMT 46.022240 39.743866 37,000 204 399 0
2020-07-17 11:25:06 GMT 46.030201 39.748878 37,000 204 399 0
2020-07-17 11:25:01 GMT 46.040176 39.755100 37,000 204 399 0
2020-07-17 11:24:58 GMT 46.045330 39.758148 37,000 206 371 0
2020-07-17 11:24:50 GMT 46.057983 39.766354 37,000 204 399 -64
2020-07-17 11:24:46 GMT 46.064941 39.770710 37,000 204 399 -64
2020-07-17 11:24:40 GMT 46.074844 39.776894 37,000 204 399 -64
2020-07-17 11:24:36 GMT 46.082432 39.781700 37,000 204 399 64
2020-07-17 11:24:29 GMT 46.093689 39.788731 37,000 204 399 64
2020-07-17 11:24:25 GMT 46.100216 39.792824 37,000 204 399 64
2020-07-17 11:24:20 GMT 46.108829 39.798248 37,000 204 399 -64
2020-07-17 11:24:15 GMT 46.117035 39.803398 37,000 204 399 -64
2020-07-17 11:24:09 GMT 46.128613 39.810677 37,000 204 399 -64
2020-07-17 11:24:05 GMT 46.134796 39.814587 37,000 204 399 0
2020-07-17 11:24:01 GMT 46.142944 39.819679 37,000 204 399 0
2020-07-17 11:23:58 GMT 46.146584 39.821938 37,000 204 399 0
2020-07-17 11:23:55 GMT 46.151733 39.825237 37,000 204 399 0
2020-07-17 11:23:50 GMT 46.161713 39.831535 37,000 204 399 0
2020-07-17 11:23:47 GMT 46.166508 39.834572 37,025 204 399 0
2020-07-17 11:23:44 GMT 46.170090 39.836838 37,025 204 399 0
2020-07-17 11:23:37 GMT 46.180984 39.843727 37,025 204 399 0
2020-07-17 11:23:34 GMT 46.185883 39.846809 37,025 204 399 0
2020-07-17 11:23:26 GMT 46.200439 39.856052 37,025 204 400 64
2020-07-17 11:23:22 GMT 46.206985 39.860207 37,000 204 400 64
2020-07-17 11:23:19 GMT 46.214584 39.865097 37,000 204 400 64
2020-07-17 11:23:16 GMT 46.217854 39.867119 37,000 204 400 64
2020-07-17 11:23:13 GMT 46.221634 39.869049 37,000 204 400 64
2020-07-17 11:23:02 GMT 46.240173 39.881374 37,000 204 400 0
2020-07-17 11:22:58 GMT 46.248112 39.886070 37,000 205 413 0
2020-07-17 11:22:54 GMT 46.254730 39.890488 37,000 204 414 0
2020-07-17 11:22:47 GMT 46.268051 39.898926 37,000 204 399 0
2020-07-17 11:22:41 GMT 46.276836 39.904266 37,000 204 399 -64
2020-07-17 11:22:38 GMT 46.282932 39.907768 37,000 206 400 -64
2020-07-17 11:22:33 GMT 46.289917 39.912369 37,000 204 397 -64
2020-07-17 11:22:30 GMT 46.294601 39.915741 37,000 204 401 -64
2020-07-17 11:22:27 GMT 46.300507 39.919495 37,025 204 399 -64
2020-07-17 11:22:24 GMT 46.304115 39.921776 37,025 204 400 -64
2020-07-17 11:22:20 GMT 46.312260 39.926926 37,025 204 400 -64
2020-07-17 11:22:15 GMT 46.321480 39.932831 37,025 204 402 0
2020-07-17 11:22:10 GMT 46.329163 39.937649 37,025 204 402 0
2020-07-17 11:22:06 GMT 46.334839 39.941277 37,025 204 398 0
2020-07-17 11:22:00 GMT 46.346375 39.948566 37,025 204 398 0
2020-07-17 11:21:57 GMT 46.352646 39.952518 37,025 204 398 0
2020-07-17 11:21:54 GMT 46.356171 39.954731 37,025 204 398 -64
2020-07-17 11:21:50 GMT 46.363514 39.959404 37,025 204 398 0
2020-07-17 11:21:46 GMT 46.369354 39.963104 37,025 204 398 0
2020-07-17 11:21:41 GMT 46.376587 39.967728 37,025 204 398 0
2020-07-17 11:21:38 GMT 46.381905 39.971077 37,025 204 398 64
2020-07-17 11:21:35 GMT 46.386887 39.974224 37,025 204 398 0
2020-07-17 11:21:31 GMT 46.393539 39.978493 37,000 204 398 64
2020-07-17 11:21:27 GMT 46.401035 39.983299 37,000 203 410 0
2020-07-17 11:21:23 GMT 46.407879 39.987625 37,000 204 398 0
2020-07-17 11:21:19 GMT 46.416492 39.993118 37,025 204 398 0
2020-07-17 11:21:16 GMT 46.421520 39.996346 37,025 204 398 0
2020-07-17 11:21:13 GMT 46.425568 39.998886 37,025 204 398 64
2020-07-17 11:21:08 GMT 46.433624 40.004105 37,000 205 398 64
2020-07-17 11:21:05 GMT 46.438934 40.007519 37,000 205 397 64
2020-07-17 11:20:58 GMT 46.450516 40.015022 37,000 204 398 64
2020-07-17 11:20:55 GMT 46.455872 40.018505 37,000 204 398 64
2020-07-17 11:20:52 GMT 46.459320 40.020653 37,000 204 398 64
2020-07-17 11:20:48 GMT 46.467934 40.026215 36,975 204 398 64
2020-07-17 11:20:43 GMT 46.476929 40.031902 36,975 204 398 64
2020-07-17 11:20:40 GMT 46.485489 40.037395 36,975 204 398 64
2020-07-17 11:20:37 GMT 46.485489 40.037395 36,975 204 398 0
2020-07-17 11:20:34 GMT 46.490463 40.040565 36,975 204 398 0
2020-07-17 11:20:30 GMT 46.496429 40.044361 36,975 204 398 0
2020-07-17 11:20:27 GMT 46.502655 40.048382 36,975 204 398 -64
2020-07-17 11:20:22 GMT 46.510941 40.053673 36,975 204 398 -64
2020-07-17 11:20:19 GMT 46.515793 40.056755 36,975 204 397 -64
2020-07-17 11:20:14 GMT 46.525471 40.062950 36,975 204 396 0
2020-07-17 11:20:11 GMT 46.528496 40.064873 36,975 204 397 0
2020-07-17 11:20:07 GMT 46.537712 40.070778 36,975 204 396 64
2020-07-17 11:20:04 GMT 46.542088 40.073524 36,975 204 396 128
2020-07-17 11:20:00 GMT 46.547768 40.077164 36,950 204 397 64
2020-07-17 11:19:56 GMT 46.554932 40.081741 36,950 204 397 64
2020-07-17 11:19:52 GMT 46.562439 40.086567 36,950 204 396 0
2020-07-17 11:19:48 GMT 46.566971 40.089447 36,950 204 396 -64
2020-07-17 11:19:43 GMT 46.576630 40.095566 36,950 204 396 -64
2020-07-17 11:19:39 GMT 46.581940 40.098961 36,975 204 396 -64
2020-07-17 11:19:36 GMT 46.590637 40.104519 36,975 204 396 -64
2020-07-17 11:19:31 GMT 46.596863 40.108471 36,975 204 396 0
2020-07-17 11:19:28 GMT 46.601028 40.111153 36,975 204 395 0
2020-07-17 11:19:24 GMT 46.608334 40.115822 36,975 205 395 0
2020-07-17 11:19:21 GMT 46.613503 40.119186 36,975 205 395 0
2020-07-17 11:19:18 GMT 46.618423 40.122337 36,975 205 395 0
2020-07-17 11:19:14 GMT 46.625183 40.126740 36,950 204 396 0
2020-07-17 11:19:11 GMT 46.631050 40.130516 36,950 204 396 0
2020-07-17 11:19:08 GMT 46.635193 40.133194 36,950 204 395 -64
2020-07-17 11:19:02 GMT 46.645061 40.139580 36,975 204 396 -128
2020-07-17 11:18:57 GMT 46.652603 40.144386 36,975 204 396 -128
2020-07-17 11:18:53 GMT 46.659576 40.148800 37,000 204 395 -128
2020-07-17 11:18:50 GMT 46.665173 40.152420 37,000 204 395 -128
2020-07-17 11:18:47 GMT 46.669502 40.155167 37,000 204 395 -128
2020-07-17 11:18:41 GMT 46.681458 40.162868 37,000 204 394 0
2020-07-17 11:18:38 GMT 46.689709 40.168213 37,000 205 395 0
2020-07-17 11:18:30 GMT 46.698738 40.174049 37,000 205 395 -64
2020-07-17 11:18:25 GMT 46.705536 40.178444 37,025 204 396 -64
2020-07-17 11:18:20 GMT 46.716019 40.185177 37,025 204 395 -64
2020-07-17 11:18:15 GMT 46.722519 40.189396 37,025 204 396 -64
2020-07-17 11:18:12 GMT 46.729065 40.193546 37,025 204 396 -64
2020-07-17 11:18:09 GMT 46.733414 40.196297 37,025 204 396 0
2020-07-17 11:18:05 GMT 46.739517 40.200211 37,025 204 396 0
2020-07-17 11:18:01 GMT 46.748337 40.205807 37,025 204 396 0
2020-07-17 11:17:57 GMT 46.752598 40.208519 37,025 204 396 0
2020-07-17 11:17:54 GMT 46.757721 40.211769 37,025 204 397 0
2020-07-17 11:17:50 GMT 46.765865 40.216965 37,025 204 397 64
2020-07-17 11:17:47 GMT 46.769730 40.219368 37,025 204 397 64
2020-07-17 11:17:44 GMT 46.774944 40.222664 37,025 204 397 0
2020-07-17 11:17:39 GMT 46.797848 40.237221 37,000 204 397 0
2020-07-17 11:17:31 GMT 46.797848 40.237221 37,000 204 397 64
2020-07-17 11:17:27 GMT 46.803898 40.241135 37,000 204 398 64
2020-07-17 11:17:24 GMT 46.808460 40.244019 37,000 204 398 0
2020-07-17 11:17:20 GMT 46.817780 40.250088 37,000 204 398 0
2020-07-17 11:17:17 GMT 46.820892 40.252052 37,000 204 397 0
2020-07-17 11:17:14 GMT 46.826103 40.255417 37,000 204 397 0
2020-07-17 11:17:10 GMT 46.832668 40.259605 37,000 204 397 64
2020-07-17 11:17:07 GMT 46.836857 40.262283 37,000 204 396 64
2020-07-17 11:17:04 GMT 46.842911 40.266129 37,000 204 396 64
2020-07-17 11:16:59 GMT 46.850452 40.271004 37,000 204 396 128
2020-07-17 11:16:56 GMT 46.855293 40.274162 36,975 204 396 64
2020-07-17 11:16:53 GMT 46.860367 40.277390 36,975 204 397 0
2020-07-17 11:16:50 GMT 46.867069 40.281647 37,000 204 396 0
2020-07-17 11:16:46 GMT 46.872238 40.284893 36,975 204 396 0
2020-07-17 11:16:43 GMT 46.876801 40.287849 36,975 204 396 0
2020-07-17 11:16:39 GMT 46.884853 40.292923 37,000 204 396 64
2020-07-17 11:16:36 GMT 46.889145 40.295654 37,000 204 396 -128
2020-07-17 11:16:33 GMT 46.894444 40.298977 37,000 204 396 0
2020-07-17 11:16:29 GMT 46.901985 40.303768 37,000 204 396 -64
2020-07-17 11:16:25 GMT 46.907639 40.307327 36,975 204 396 0
2020-07-17 11:16:22 GMT 46.912785 40.310600 37,000 204 396 -64
2020-07-17 11:16:19 GMT 46.923798 40.317627 37,025 204 397 -192
2020-07-17 11:16:11 GMT 46.930801 40.322079 37,025 204 397 -192
2020-07-17 11:16:08 GMT 46.937458 40.326443 37,025 204 396 -192
2020-07-17 11:16:05 GMT 46.941605 40.329025 37,025 204 397 -128
2020-07-17 11:16:01 GMT 46.947418 40.332783 37,050 204 397 -64
2020-07-17 11:15:58 GMT 46.953690 40.336853 37,050 204 397 0
2020-07-17 11:15:55 GMT 46.958405 40.339874 37,025 204 397 0
2020-07-17 11:15:51 GMT 46.964951 40.344063 37,025 204 397 0
2020-07-17 11:15:47 GMT 46.971817 40.348457 37,025 204 397 0
2020-07-17 11:15:44 GMT 46.976795 40.351658 37,025 204 398 -64
2020-07-17 11:15:41 GMT 46.981613 40.354706 37,050 204 398 -64
2020-07-17 11:15:37 GMT 46.988247 40.358910 37,050 204 398 -64
2020-07-17 11:15:34 GMT 46.993240 40.362122 37,050 204 398 0
2020-07-17 11:15:30 GMT 46.999371 40.366024 37,050 204 398 64
2020-07-17 11:15:25 GMT 47.009216 40.372284 37,025 204 398 64
2020-07-17 11:15:21 GMT 47.016037 40.376728 37,025 204 398 64
2020-07-17 11:15:16 GMT 47.025303 40.382713 37,025 204 398 0
2020-07-17 11:15:10 GMT 47.033615 40.388077 37,025 204 398 0
2020-07-17 11:15:07 GMT 47.041031 40.392815 37,025 204 398 64
2020-07-17 11:15:04 GMT 47.043644 40.394474 37,025 204 398 64
2020-07-17 11:15:00 GMT 47.051090 40.399265 37,025 204 398 64
2020-07-17 11:14:55 GMT 47.059753 40.404831 37,025 204 398 64
2020-07-17 11:14:50 GMT 47.068130 40.410324 37,000 204 398 64
2020-07-17 11:14:44 GMT 47.077057 40.416092 37,000 204 398 0
2020-07-17 11:14:39 GMT 47.085617 40.421654 37,000 204 398 0
2020-07-17 11:14:34 GMT 47.094864 40.427628 37,000 204 398 0
2020-07-17 11:14:29 GMT 47.102600 40.432640 37,025 204 397 -64
2020-07-17 11:14:24 GMT 47.119629 40.443489 37,025 204 396 -64
2020-07-17 11:14:19 GMT 47.119629 40.443489 37,050 204 396 -64
2020-07-17 11:14:13 GMT 47.130230 40.450321 37,025 204 395 64
2020-07-17 11:14:09 GMT 47.137119 40.454758 37,025 204 395 0
2020-07-17 11:14:04 GMT 47.145767 40.460243 37,025 204 396 0
2020-07-17 11:13:58 GMT 47.154144 40.465530 37,025 204 395 64
2020-07-17 11:13:53 GMT 47.163280 40.471310 37,025 204 395 64
2020-07-17 11:13:48 GMT 47.171082 40.476379 37,025 204 395 -64
2020-07-17 11:13:44 GMT 47.180695 40.482506 37,025 204 394 -64
2020-07-17 11:13:38 GMT 47.188477 40.487503 37,025 204 394 64
2020-07-17 11:13:33 GMT 47.197266 40.493202 37,025 204 393 128
2020-07-17 11:13:28 GMT 47.205505 40.498634 37,025 205 394 64
2020-07-17 11:13:24 GMT 47.213242 40.503639 37,000 204 394 64
2020-07-17 11:13:18 GMT 47.221985 40.509270 37,000 203 394 0
2020-07-17 11:13:12 GMT 47.232273 40.515465 37,000 202 394 0
2020-07-17 11:13:07 GMT 47.240791 40.520325 37,025 201 394 0
2020-07-17 11:13:02 GMT 47.249172 40.524761 37,025 200 393 0
2020-07-17 11:12:57 GMT 47.256821 40.528564 37,025 198 394 -64
2020-07-17 11:12:53 GMT 47.266117 40.532860 37,025 197 393 0
2020-07-17 11:12:47 GMT 47.275242 40.536663 37,025 196 393 0
2020-07-17 11:12:42 GMT 47.284103 40.540031 37,025 194 393 0
2020-07-17 11:12:37 GMT 47.292698 40.543072 37,025 193 393 0
2020-07-17 11:12:31 GMT 47.302425 40.546169 37,000 188 393 64
2020-07-17 11:12:27 GMT 47.310993 40.548565 37,000 191 393 64
2020-07-17 11:12:20 GMT 47.322445 40.551311 37,000 188 393 64
2020-07-17 11:12:16 GMT 47.329845 40.552860 37,000 188 393 64
2020-07-17 11:12:11 GMT 47.339577 40.554550 36,975 186 393 64
2020-07-17 11:12:05 GMT 47.349472 40.555962 36,975 185 393 64
2020-07-17 11:11:59 GMT 47.361420 40.557266 36,975 184 393 64
2020-07-17 11:11:56 GMT 47.367050 40.557678 36,975 183 393 64
2020-07-17 11:11:50 GMT 47.376957 40.558285 36,950 182 393 128
2020-07-17 11:11:46 GMT 47.384918 40.558636 36,950 182 393 64
2020-07-17 11:11:41 GMT 47.396183 40.558918 36,950 182 393 64
2020-07-17 11:11:35 GMT 47.403957 40.559200 36,950 182 392 0
2020-07-17 11:11:30 GMT 47.414200 40.559532 36,950 182 392 0
2020-07-17 11:11:25 GMT 47.422852 40.559875 36,950 182 391 0
2020-07-17 11:11:19 GMT 47.432728 40.560184 36,950 182 391 -64
2020-07-17 11:11:15 GMT 47.441013 40.560398 36,950 181 391 -64
2020-07-17 11:11:09 GMT 47.451302 40.560608 36,975 179 390 0
2020-07-17 11:11:05 GMT 47.458969 40.560493 36,975 179 390 64
2020-07-17 11:10:59 GMT 47.470459 40.560081 36,950 177 390 64
2020-07-17 11:10:53 GMT 47.479420 40.559410 36,950 176 390 64
2020-07-17 11:10:49 GMT 47.488312 40.558434 36,950 174 391 -64
2020-07-17 11:10:43 GMT 47.498062 40.556992 36,975 173 392 -128
2020-07-17 11:10:39 GMT 47.507305 40.555397 36,975 172 392 -128
2020-07-17 11:10:34 GMT 47.514286 40.553917 36,975 171 392 -128
2020-07-17 11:10:28 GMT 47.527451 40.550880 37,000 169 392 -64
2020-07-17 11:10:23 GMT 47.533859 40.549095 37,000 169 392 -64
2020-07-17 11:10:18 GMT 47.542419 40.546555 37,000 167 393 -128
2020-07-17 11:10:14 GMT 47.550831 40.543705 37,000 166 394 0
2020-07-17 11:10:07 GMT 47.564377 40.538425 37,000 164 395 0
2020-07-17 11:10:03 GMT 47.568878 40.536530 37,000 163 395 0
2020-07-17 11:09:56 GMT 47.582474 40.530281 37,000 161 396 64
2020-07-17 11:09:53 GMT 47.586952 40.528141 37,000 161 396 64
2020-07-17 11:09:49 GMT 47.604877 40.519550 37,000 162 395 64
2020-07-17 11:09:43 GMT 47.604877 40.519550 37,000 162 396 64
2020-07-17 11:09:36 GMT 47.617676 40.513527 37,000 162 396 0
2020-07-17 11:09:33 GMT 47.622391 40.511261 36,975 162 396 -64
2020-07-17 11:09:28 GMT 47.630630 40.507416 37,000 162 397 -128
2020-07-17 11:09:22 GMT 47.640564 40.502678 37,025 162 397 -64
2020-07-17 11:09:17 GMT 47.648869 40.498703 37,025 161 397 64
2020-07-17 11:09:14 GMT 47.654640 40.495888 37,025 161 397 128
2020-07-17 11:09:08 GMT 47.667210 40.489902 37,000 162 398 64
2020-07-17 11:09:05 GMT 47.672611 40.487293 37,000 162 398 0
2020-07-17 11:08:57 GMT 47.684669 40.481522 37,000 162 397 -128
2020-07-17 11:08:54 GMT 47.690048 40.479057 37,025 162 397 -128
2020-07-17 11:08:47 GMT 47.707993 40.471298 37,025 165 396 -64
2020-07-17 11:08:37 GMT 47.720398 40.466698 37,025 166 395 0
2020-07-17 11:08:33 GMT 47.726517 40.464687 37,025 167 393 0
2020-07-17 11:08:26 GMT 47.738995 40.460957 37,025 169 393 -64
2020-07-17 11:08:23 GMT 47.745232 40.459267 37,025 170 392 0
2020-07-17 11:08:15 GMT 47.758640 40.456097 37,025 171 391 0
2020-07-17 11:08:11 GMT 47.766083 40.454681 37,025 172 391 64
2020-07-17 11:08:06 GMT 47.775864 40.453068 37,025 174 390 64
2020-07-17 11:07:55 GMT 47.794281 40.451248 37,025 177 389 64
2020-07-17 11:07:45 GMT 47.812958 40.451111 37,000 182 388 128
2020-07-17 11:07:34 GMT 47.832092 40.451729 37,000 182 388 64
2020-07-17 11:07:24 GMT 47.851822 40.452484 36,975 182 388 0
2020-07-17 11:07:14 GMT 47.868736 40.453068 36,975 182 387 64
2020-07-17 11:07:03 GMT 47.888706 40.453842 36,975 182 386 64
2020-07-17 11:06:53 GMT 47.907166 40.454613 36,975 182 386 0
2020-07-17 11:06:43 GMT 47.923992 40.455254 36,975 182 385 64
2020-07-17 11:06:33 GMT 47.941864 40.455849 36,975 182 385 64
2020-07-17 11:06:23 GMT 47.960495 40.456467 36,950 182 385 0
2020-07-17 11:06:12 GMT 47.991531 40.457565 36,975 182 383 64
2020-07-17 11:06:03 GMT 47.995171 40.457718 36,975 182 383 64
2020-07-17 11:05:53 GMT 48.012955 40.458252 36,950 182 383 0
2020-07-17 11:05:42 GMT 48.031128 40.458870 36,950 182 383 0
2020-07-17 11:05:32 GMT 48.049164 40.459488 36,950 182 383 -64
2020-07-17 11:05:22 GMT 48.067017 40.460037 36,975 182 382 -64
2020-07-17 11:05:12 GMT 48.084686 40.460655 36,975 182 382 64
2020-07-17 11:05:01 GMT 48.104828 40.461411 36,975 182 382 -64
2020-07-17 11:04:51 GMT 48.121399 40.462097 36,975 182 383 -64
2020-07-17 11:04:41 GMT 48.139156 40.462715 37,000 182 383 -64
2020-07-17 11:04:31 GMT 48.157471 40.463402 37,000 182 383 -64
2020-07-17 11:04:23 GMT 48.171696 40.463875 37,025 182 383 -64
2020-07-17 11:04:20 GMT 48.176819 40.464092 37,025 182 383 -64
2020-07-17 11:04:14 GMT 48.189388 40.464527 37,025 182 384 -64
2020-07-17 11:04:10 GMT 48.193623 40.464668 37,025 182 384 0
2020-07-17 11:04:03 GMT 48.207634 40.465176 37,025 182 384 0
2020-07-17 11:04:00 GMT 48.211990 40.465324 37,025 182 384 0
2020-07-17 11:03:50 GMT 48.229568 40.465885 37,050 182 385 0
2020-07-17 11:03:40 GMT 48.248245 40.466591 37,050 182 386 -64
2020-07-17 11:03:30 GMT 48.265915 40.467224 37,050 182 386 0
2020-07-17 11:03:20 GMT 48.284088 40.467857 37,050 182 386 0
2020-07-17 11:03:09 GMT 48.302929 40.468502 37,050 182 386 0
2020-07-17 11:03:02 GMT 48.317642 40.468987 37,050 182 386 64
2020-07-17 11:02:59 GMT 48.321270 40.469151 37,025 182 386 64
2020-07-17 11:02:51 GMT 48.335377 40.469658 37,025 182 386 64
2020-07-17 11:02:48 GMT 48.339569 40.469761 37,025 182 386 64
2020-07-17 11:02:40 GMT 48.354172 40.470322 37,025 182 386 0
2020-07-17 11:02:37 GMT 48.360840 40.470524 37,025 182 386 0
2020-07-17 11:02:32 GMT 48.371841 40.470959 37,025 182 386 64
2020-07-17 11:02:28 GMT 48.375641 40.471104 37,025 182 386 64
2020-07-17 11:02:23 GMT 48.384109 40.471451 37,025 182 386 64
2020-07-17 11:02:18 GMT 48.393612 40.471825 37,025 182 385 64
2020-07-17 11:02:15 GMT 48.399216 40.472084 37,025 182 385 64
2020-07-17 11:02:11 GMT 48.407776 40.472366 37,000 182 385 0
2020-07-17 11:02:08 GMT 48.412464 40.472549 37,000 182 385 0
2020-07-17 11:02:05 GMT 48.417023 40.472717 37,025 182 385 -64
2020-07-17 11:01:58 GMT 48.430061 40.473125 37,025 182 384 0
2020-07-17 11:01:48 GMT 48.447937 40.473778 37,025 182 383 0
2020-07-17 11:01:37 GMT 48.466652 40.474499 37,000 182 382 64
2020-07-17 11:01:32 GMT 48.475590 40.474861 37,000 182 381 0
2020-07-17 11:01:27 GMT 48.485733 40.475254 37,000 182 381 0
2020-07-17 11:01:22 GMT 48.491978 40.475513 37,000 182 381 0
2020-07-17 11:01:17 GMT 48.503567 40.476017 37,025 182 380 0
2020-07-17 11:01:13 GMT 48.509155 40.476234 37,025 182 380 0
2020-07-17 11:01:07 GMT 48.518692 40.476662 37,000 182 379 64
2020-07-17 11:01:04 GMT 48.523773 40.476871 37,000 182 378 64
2020-07-17 11:00:56 GMT 48.539555 40.477463 37,000 182 378 0
2020-07-17 11:00:48 GMT 48.554489 40.478001 37,000 182 377 0
2020-07-17 11:00:45 GMT 48.557785 40.478142 36,975 182 377 0
2020-07-17 11:00:39 GMT 48.568832 40.478546 37,000 182 377 0
2020-07-17 11:00:36 GMT 48.574932 40.478764 37,000 182 376 64
2020-07-17 11:00:33 GMT 48.577679 40.478909 37,000 182 376 64
2020-07-17 11:00:28 GMT 48.587814 40.479267 37,000 182 374 64
2020-07-17 11:00:25 GMT 48.591476 40.479408 37,000 182 374 0
2020-07-17 11:00:22 GMT 48.597416 40.479561 37,000 182 373 0
2020-07-17 11:00:18 GMT 48.603935 40.479851 37,000 182 372 0
2020-07-17 11:00:15 GMT 48.615372 40.480251 37,000 182 371 -64
2020-07-17 11:00:06 GMT 48.625534 40.480644 37,000 182 370 0
2020-07-17 11:00:03 GMT 48.630516 40.480789 37,000 182 370 0
2020-07-17 10:59:59 GMT 48.638336 40.481075 37,000 182 369 -64
2020-07-17 10:59:55 GMT 48.644295 40.481220 37,000 181 369 -64
2020-07-17 10:59:51 GMT 48.651138 40.481365 37,025 181 368 -64
2020-07-17 10:59:48 GMT 48.655975 40.481522 37,025 181 368 -64
2020-07-17 10:59:44 GMT 48.663521 40.481655 37,025 181 368 0
2020-07-17 10:59:35 GMT 48.678185 40.482018 37,025 182 369 0
2020-07-17 10:59:31 GMT 48.684219 40.482224 37,025 182 370 -64
2020-07-17 10:59:28 GMT 48.690399 40.482437 37,000 182 371 0
2020-07-17 10:59:24 GMT 48.696533 40.482719 37,000 182 372 0
2020-07-17 10:59:21 GMT 48.701706 40.482929 37,000 182 373 0
2020-07-17 10:59:18 GMT 48.708164 40.483173 37,000 182 374 128
2020-07-17 10:59:13 GMT 48.716354 40.483494 37,000 182 375 64
2020-07-17 10:59:10 GMT 48.720642 40.483681 36,975 182 377 64
2020-07-17 10:59:06 GMT 48.727764 40.483894 36,975 182 378 0
2020-07-17 10:59:03 GMT 48.734047 40.484184 36,975 182 380 64
2020-07-17 10:58:57 GMT 48.743500 40.484547 37,000 182 380 0
2020-07-17 10:58:53 GMT 48.749725 40.484760 36,975 182 380 128
2020-07-17 10:58:50 GMT 48.756042 40.484970 36,975 182 380 128
2020-07-17 10:58:46 GMT 48.762726 40.485252 36,975 182 381 128
2020-07-17 10:58:43 GMT 48.768906 40.485462 36,950 182 381 64
2020-07-17 10:58:40 GMT 48.773483 40.485603 36,950 182 382 64
2020-07-17 10:58:37 GMT 48.779480 40.485744 37,000 182 383 -128
2020-07-17 10:58:32 GMT 48.787861 40.485992 36,975 182 383 -128
2020-07-17 10:58:26 GMT 48.798706 40.486382 36,975 182 383 -128
2020-07-17 10:58:23 GMT 48.804199 40.486523 37,000 182 383 -64
2020-07-17 10:58:20 GMT 48.808960 40.486732 37,000 182 383 -64
2020-07-17 10:58:16 GMT 48.824593 40.487366 37,000 182 383 0
2020-07-17 10:58:12 GMT 48.824593 40.487366 37,000 182 383 0
2020-07-17 10:58:09 GMT 48.827431 40.487438 37,000 182 383 -64
2020-07-17 10:58:04 GMT 48.844238 40.488159 37,000 182 384 -64
2020-07-17 10:58:01 GMT 48.847076 40.488232 37,000 182 384 -64
2020-07-17 10:57:55 GMT 48.852428 40.488377 37,025 182 384 0
2020-07-17 10:57:52 GMT 48.857552 40.488522 37,000 182 385 0
2020-07-17 10:57:49 GMT 48.862976 40.488705 37,000 181 385 0
2020-07-17 10:57:44 GMT 48.871796 40.488811 37,000 181 385 0
2020-07-17 10:57:41 GMT 48.877899 40.488987 37,025 181 386 0
2020-07-17 10:57:35 GMT 48.888508 40.489174 37,000 181 386 64
2020-07-17 10:57:32 GMT 48.896004 40.489319 37,000 181 387 0
2020-07-17 10:57:28 GMT 48.900845 40.489464 37,000 182 387 0
2020-07-17 10:57:25 GMT 48.907013 40.489761 37,000 182 387 -64
2020-07-17 10:57:22 GMT 48.912251 40.490040 37,000 183 387 -128
2020-07-17 10:57:19 GMT 48.917648 40.490330 37,000 183 387 -128
2020-07-17 10:57:13 GMT 48.929241 40.491268 37,025 183 387 -64
2020-07-17 10:57:10 GMT 48.932739 40.491520 37,025 183 387 -64
2020-07-17 10:57:04 GMT 48.944466 40.492424 37,025 184 388 64
2020-07-17 10:57:01 GMT 48.950821 40.493000 37,025 184 388 128
2020-07-17 10:56:58 GMT 48.955357 40.493366 37,000 184 389 128
2020-07-17 10:56:54 GMT 48.962814 40.493984 37,000 184 389 128
2020-07-17 10:56:51 GMT 48.973251 40.494900 36,975 184 390 128
2020-07-17 10:56:48 GMT 48.973251 40.494900 36,975 184 390 64
2020-07-17 10:56:45 GMT 48.980728 40.495605 36,975 184 391 0
2020-07-17 10:56:40 GMT 48.987759 40.496185 36,975 184 392 -128
2020-07-17 10:56:37 GMT 48.992271 40.496616 37,000 184 392 -128
2020-07-17 10:56:34 GMT 48.998520 40.497086 37,000 184 392 -192
2020-07-17 10:56:30 GMT 49.006752 40.497772 37,025 184 392 -128
2020-07-17 10:56:27 GMT 49.010941 40.498135 37,025 184 392 0
2020-07-17 10:56:21 GMT 49.021786 40.499004 37,025 184 391 64
2020-07-17 10:56:17 GMT 49.029099 40.499619 37,000 184 391 64
2020-07-17 10:56:11 GMT 49.040497 40.500607 37,000 184 392 128
2020-07-17 10:56:07 GMT 49.047180 40.501240 36,975 184 392 128
2020-07-17 10:56:04 GMT 49.053680 40.501873 36,975 184 393 0
2020-07-17 10:56:01 GMT 49.059677 40.502365 37,000 184 393 0
2020-07-17 10:55:58 GMT 49.062241 40.502647 36,975 184 393 0
2020-07-17 10:55:54 GMT 49.072952 40.503563 36,975 184 394 0
2020-07-17 10:55:50 GMT 49.077667 40.503986 36,975 184 394 0
2020-07-17 10:55:46 GMT 49.084763 40.504547 36,975 184 394 64
2020-07-17 10:55:43 GMT 49.091244 40.505074 36,975 184 394 0
2020-07-17 10:55:39 GMT 49.096874 40.505508 36,975 184 395 -128
2020-07-17 10:55:36 GMT 49.102982 40.506027 37,000 184 395 -128
2020-07-17 10:55:32 GMT 49.110374 40.506664 37,000 184 395 -128
2020-07-17 10:55:29 GMT 49.123032 40.507717 37,000 184 395 -64
2020-07-17 10:55:25 GMT 49.123032 40.507717 37,000 184 395 -64
2020-07-17 10:55:18 GMT 49.138309 40.509048 37,025 184 396 -64
2020-07-17 10:55:15 GMT 49.140564 40.509197 37,025 184 396 -64
2020-07-17 10:55:10 GMT 49.151871 40.510181 37,025 184 396 0
2020-07-17 10:55:05 GMT 49.159302 40.510857 37,025 184 396 64
2020-07-17 10:55:02 GMT 49.164612 40.511292 37,025 184 397 -128
2020-07-17 10:54:59 GMT 49.170616 40.511723 37,025 184 396 64
2020-07-17 10:54:56 GMT 49.175491 40.512154 37,025 184 397 0
2020-07-17 10:54:52 GMT 49.183838 40.512810 37,025 184 397 -128
2020-07-17 10:54:47 GMT 49.194263 40.513676 37,025 184 398 -128
2020-07-17 10:54:38 GMT 49.208603 40.514904 37,050 184 398 -128
2020-07-17 10:54:35 GMT 49.215397 40.515484 37,050 184 398 -64
2020-07-17 10:54:29 GMT 49.226852 40.516453 37,050 184 398 0
2020-07-17 10:54:25 GMT 49.232483 40.516930 37,050 184 398 64
2020-07-17 10:54:22 GMT 49.240025 40.517506 37,050 184 399 64
2020-07-17 10:54:18 GMT 49.246075 40.518013 37,050 184 399 64
2020-07-17 10:54:15 GMT 49.253174 40.518635 37,050 184 399 0
2020-07-17 10:54:11 GMT 49.259628 40.519127 37,050 184 399 0
2020-07-17 10:54:07 GMT 49.265442 40.519604 37,050 184 400 -64
2020-07-17 10:54:04 GMT 49.272285 40.520252 37,050 184 400 -64
2020-07-17 10:54:01 GMT 49.277267 40.520615 37,050 184 400 0
2020-07-17 10:53:57 GMT 49.284760 40.521313 37,050 184 400 0
2020-07-17 10:53:53 GMT 49.291653 40.521843 37,050 183 401 0
2020-07-17 10:53:50 GMT 49.298542 40.522423 37,050 183 401 64
2020-07-17 10:53:47 GMT 49.303986 40.522861 37,050 183 401 64
2020-07-17 10:53:43 GMT 49.310303 40.523354 37,050 183 402 64
2020-07-17 10:53:38 GMT 49.321426 40.524269 37,025 184 402 64
2020-07-17 10:53:34 GMT 49.327076 40.524734 37,050 184 402 0
2020-07-17 10:53:30 GMT 49.335411 40.525383 37,050 183 402 64
2020-07-17 10:53:26 GMT 49.342941 40.526028 37,025 183 402 64
2020-07-17 10:53:23 GMT 49.348114 40.526451 37,025 183 402 64
2020-07-17 10:53:20 GMT 49.354614 40.526943 37,025 183 402 64
2020-07-17 10:53:17 GMT 49.359383 40.527336 37,025 183 402 64
2020-07-17 10:53:12 GMT 49.378143 40.528854 37,025 184 402 -64
2020-07-17 10:53:07 GMT 49.378143 40.528854 37,025 184 402 -64
2020-07-17 10:53:00 GMT 49.391418 40.529903 37,025 184 402 -64
2020-07-17 10:52:57 GMT 49.398834 40.530537 37,025 184 402 -128
2020-07-17 10:52:53 GMT 49.410591 40.531528 37,050 184 401 -64
2020-07-17 10:52:50 GMT 49.410591 40.531528 37,050 184 401 0
2020-07-17 10:52:46 GMT 49.416317 40.532036 37,050 184 400 64
2020-07-17 10:52:41 GMT 49.424744 40.532719 37,025 184 400 128
2020-07-17 10:52:38 GMT 49.430649 40.533264 37,025 184 400 128
2020-07-17 10:52:35 GMT 49.436920 40.533840 37,000 184 400 128
2020-07-17 10:52:31 GMT 49.444153 40.534420 37,000 184 401 64
2020-07-17 10:52:26 GMT 49.453949 40.535286 37,000 183 401 -64
2020-07-17 10:52:21 GMT 49.462646 40.535793 37,000 182 402 -128
2020-07-17 10:52:15 GMT 49.473999 40.536079 37,025 181 402 -64
2020-07-17 10:52:10 GMT 49.482925 40.536011 37,025 179 402 0
2020-07-17 10:52:05 GMT 49.494781 40.535503 37,025 177 403 64
2020-07-17 10:52:00 GMT 49.501602 40.534946 37,000 176 403 64
2020-07-17 10:51:55 GMT 49.511353 40.533985 37,000 175 404 0
2020-07-17 10:51:49 GMT 49.521107 40.532646 37,000 174 405 0
2020-07-17 10:51:45 GMT 49.529858 40.531162 37,000 173 405 -64
2020-07-17 10:51:39 GMT 49.540241 40.529160 37,000 171 406 0
2020-07-17 10:51:35 GMT 49.557770 40.524879 37,025 170 406 0
2020-07-17 10:51:31 GMT 49.557770 40.524879 37,000 169 406 64
2020-07-17 10:51:25 GMT 49.567886 40.521988 37,000 168 407 128
2020-07-17 10:51:20 GMT 49.576172 40.519314 36,975 167 408 64
2020-07-17 10:51:14 GMT 49.587116 40.515427 36,975 166 408 64
2020-07-17 10:51:08 GMT 49.597172 40.511417 36,975 164 409 0
2020-07-17 10:51:04 GMT 49.605740 40.507706 36,975 163 410 0
2020-07-17 10:50:59 GMT 49.614632 40.503548 36,975 162 411 128
2020-07-17 10:50:54 GMT 49.623848 40.498947 36,975 161 412 64
2020-07-17 10:50:48 GMT 49.633118 40.494015 36,950 160 413 0
2020-07-17 10:50:43 GMT 49.642376 40.488998 36,950 160 413 0
2020-07-17 10:50:37 GMT 49.654430 40.482468 36,950 160 412 0
2020-07-17 10:50:34 GMT 49.660812 40.478981 36,975 160 412 0
2020-07-17 10:50:28 GMT 49.670166 40.473633 36,975 159 412 -64
2020-07-17 10:50:23 GMT 49.678547 40.468807 36,975 159 413 -64
2020-07-17 10:50:18 GMT 49.687912 40.463299 36,975 158 413 0
2020-07-17 10:50:13 GMT 49.697296 40.457443 36,975 157 413 0
2020-07-17 10:50:07 GMT 49.707222 40.450916 36,975 155 414 0
2020-07-17 10:50:02 GMT 49.716339 40.444431 36,975 154 415 0
2020-07-17 10:49:57 GMT 49.724865 40.437927 36,975 152 417 0
2020-07-17 10:49:53 GMT 49.732635 40.431641 36,975 150 418 -64
2020-07-17 10:49:45 GMT 49.745041 40.420582 37,000 148 420 -64
2020-07-17 10:49:42 GMT 49.749306 40.416550 37,000 148 421 -64
2020-07-17 10:49:36 GMT 49.758820 40.407570 37,000 148 421 64
2020-07-17 10:49:33 GMT 49.764015 40.402668 37,000 148 421 0
2020-07-17 10:49:29 GMT 49.770489 40.396507 37,000 148 420 0
2020-07-17 10:49:26 GMT 49.775467 40.391830 36,975 148 421 0
2020-07-17 10:49:20 GMT 49.787899 40.380100 36,975 148 421 128
2020-07-17 10:49:15 GMT 49.793793 40.374538 36,975 148 421 128
2020-07-17 10:49:12 GMT 49.804657 40.364288 36,975 148 421 64
2020-07-17 10:49:09 GMT 49.804657 40.364288 36,975 148 421 0
2020-07-17 10:49:05 GMT 49.810337 40.358944 36,975 148 421 0
2020-07-17 10:49:02 GMT 49.817551 40.352135 36,975 148 421 64
2020-07-17 10:48:55 GMT 49.827232 40.342834 36,975 148 421 0
2020-07-17 10:48:52 GMT 49.831787 40.338543 36,975 148 422 -64
2020-07-17 10:48:49 GMT 49.839569 40.331100 36,975 148 421 -64
2020-07-17 10:48:44 GMT 49.846321 40.324722 36,975 148 422 -64
2020-07-17 10:48:41 GMT 49.851440 40.319824 36,975 148 422 -64
2020-07-17 10:48:35 GMT 49.860809 40.310863 36,975 148 421 -64
2020-07-17 10:48:32 GMT 49.866013 40.305870 37,000 148 422 0
2020-07-17 10:48:28 GMT 49.872894 40.299370 36,975 148 421 0
2020-07-17 10:48:25 GMT 49.877838 40.294807 36,975 149 420 64
2020-07-17 10:48:21 GMT 49.885849 40.287731 36,975 151 419 -64
2020-07-17 10:48:18 GMT 49.890732 40.283749 37,000 153 417 -64
2020-07-17 10:48:13 GMT 49.897484 40.278625 37,000 155 416 0
2020-07-17 10:48:10 GMT 49.903069 40.274693 37,000 155 416 0
2020-07-17 10:48:06 GMT 49.909195 40.270821 37,000 158 413 0
2020-07-17 10:48:03 GMT 49.915173 40.267269 36,975 159 413 64
2020-07-17 10:48:00 GMT 49.921597 40.263779 36,975 161 412 64
2020-07-17 10:47:57 GMT 49.927040 40.260960 36,975 161 411 64
2020-07-17 10:47:54 GMT 49.931442 40.258602 36,975 161 411 0
2020-07-17 10:47:49 GMT 49.939983 40.254128 36,975 161 412 64
2020-07-17 10:47:46 GMT 49.945572 40.251160 36,975 161 412 0
2020-07-17 10:47:42 GMT 49.954880 40.246319 36,975 161 413 -64
2020-07-17 10:47:38 GMT 49.961678 40.242699 36,975 161 413 -64
2020-07-17 10:47:34 GMT 49.968063 40.239380 36,975 161 413 -128
2020-07-17 10:47:29 GMT 49.976578 40.234898 37,000 161 413 -128
2020-07-17 10:47:24 GMT 49.985188 40.230373 37,000 161 413 -128
2020-07-17 10:47:21 GMT 49.992214 40.226662 37,000 161 413 -64
2020-07-17 10:47:16 GMT 50.001343 40.221813 37,000 161 413 -64
2020-07-17 10:47:11 GMT 50.010323 40.217159 37,025 161 414 -64
2020-07-17 10:47:08 GMT 50.014938 40.214729 37,000 161 414 0
2020-07-17 10:47:05 GMT 50.021301 40.211334 37,025 161 414 -64
2020-07-17 10:47:02 GMT 50.024734 40.209526 37,025 161 414 -64
2020-07-17 10:46:59 GMT 50.032112 40.205730 37,025 161 414 -64
2020-07-17 10:46:55 GMT 50.039108 40.202011 37,025 161 415 -64
2020-07-17 10:46:52 GMT 50.043751 40.199570 37,025 161 415 -64
2020-07-17 10:46:49 GMT 50.051197 40.195633 37,025 161 416 -64
2020-07-17 10:46:42 GMT 50.061344 40.190289 37,025 161 416 -64
2020-07-17 10:46:38 GMT 50.069641 40.185963 37,050 161 416 -64
2020-07-17 10:46:31 GMT 50.082481 40.179153 37,025 161 416 64
2020-07-17 10:46:28 GMT 50.088486 40.176037 37,025 161 417 64
2020-07-17 10:46:22 GMT 50.098801 40.170570 37,025 161 417 64
2020-07-17 10:46:17 GMT 50.106918 40.166237 37,000 161 417 128
2020-07-17 10:46:12 GMT 50.117489 40.160599 37,000 161 418 64
2020-07-17 10:46:07 GMT 50.128006 40.155029 37,000 161 419 64
2020-07-17 10:46:01 GMT 50.136612 40.150547 37,000 161 419 64
2020-07-17 10:45:57 GMT 50.144669 40.146282 37,000 161 419 0
2020-07-17 10:45:49 GMT 50.159363 40.138550 37,000 161 419 64
2020-07-17 10:45:45 GMT 50.165482 40.135357 36,975 161 420 0
2020-07-17 10:45:40 GMT 50.174377 40.130672 36,975 161 420 0
2020-07-17 10:45:37 GMT 50.182755 40.126228 37,000 161 420 0
2020-07-17 10:45:28 GMT 50.197357 40.118530 37,000 161 420 -64
2020-07-17 10:45:25 GMT 50.202118 40.115929 37,000 161 420 -64
2020-07-17 10:45:20 GMT 50.220291 40.106316 37,000 161 420 -64
2020-07-17 10:45:16 GMT 50.220291 40.106316 37,000 161 420 -64
2020-07-17 10:45:10 GMT 50.231140 40.100605 37,000 161 420 -64
2020-07-17 10:45:06 GMT 50.239609 40.096123 37,025 161 420 -64
2020-07-17 10:44:58 GMT 50.253387 40.088821 37,025 161 420 0
2020-07-17 10:44:53 GMT 50.262589 40.083981 37,025 161 420 0
2020-07-17 10:44:48 GMT 50.271530 40.079311 37,025 161 420 -64
2020-07-17 10:44:44 GMT 50.277767 40.076046 37,025 161 421 -64
2020-07-17 10:44:38 GMT 50.290375 40.069305 37,050 161 421 -64
2020-07-17 10:44:35 GMT 50.296761 40.065952 37,050 161 421 -64
2020-07-17 10:44:27 GMT 50.309006 40.059479 37,050 161 421 0
2020-07-17 10:44:24 GMT 50.315460 40.056007 37,050 161 421 -64
2020-07-17 10:44:17 GMT 50.327904 40.049324 37,050 160 422 -64
2020-07-17 10:44:13 GMT 50.334595 40.045673 37,050 160 423 0
2020-07-17 10:44:07 GMT 50.346897 40.039078 37,050 160 423 0
2020-07-17 10:44:02 GMT 50.357666 40.033241 37,050 160 423 64
2020-07-17 10:43:58 GMT 50.362400 40.030689 37,050 160 423 64
2020-07-17 10:43:55 GMT 50.370071 40.026520 37,050 160 423 64
2020-07-17 10:43:46 GMT 50.384373 40.018814 37,025 160 424 64
2020-07-17 10:43:42 GMT 50.393078 40.014065 37,025 160 424 64
2020-07-17 10:43:36 GMT 50.403786 40.008274 37,025 161 424 0
2020-07-17 10:43:33 GMT 50.410904 40.004402 37,025 161 423 0
2020-07-17 10:43:27 GMT 50.422394 39.998329 37,025 161 423 0
2020-07-17 10:43:23 GMT 50.427017 39.995872 37,025 161 423 0
2020-07-17 10:43:16 GMT 50.440838 39.988525 37,025 161 423 0
2020-07-17 10:43:13 GMT 50.445450 39.986076 37,025 161 423 0
2020-07-17 10:43:07 GMT 50.464417 39.975849 37,025 161 423 64
2020-07-17 10:43:04 GMT 50.464417 39.975849 37,025 161 423 64
2020-07-17 10:43:01 GMT 50.468025 39.973904 37,025 161 423 64
2020-07-17 10:42:57 GMT 50.476543 39.969376 37,000 161 423 64
2020-07-17 10:42:53 GMT 50.483761 39.965515 37,000 161 423 64
2020-07-17 10:42:49 GMT 50.490417 39.961952 37,000 161 423 64
2020-07-17 10:42:46 GMT 50.497742 39.957996 37,000 160 423 0
2020-07-17 10:42:43 GMT 50.502243 39.955566 37,000 160 423 0
2020-07-17 10:42:35 GMT 50.516968 39.947662 37,000 161 422 0
2020-07-17 10:42:32 GMT 50.521839 39.945026 37,000 161 422 64
2020-07-17 10:42:26 GMT 50.533905 39.938484 37,000 161 421 0
2020-07-17 10:42:23 GMT 50.540359 39.935013 37,000 161 421 64
2020-07-17 10:42:15 GMT 50.554474 39.927509 37,000 161 421 64
2020-07-17 10:42:10 GMT 50.563019 39.922943 36,975 161 421 64
2020-07-17 10:42:05 GMT 50.572220 39.918030 36,975 161 420 128
2020-07-17 10:42:02 GMT 50.577843 39.915035 36,975 161 420 64
2020-07-17 10:41:54 GMT 50.591904 39.907475 36,975 161 420 0
2020-07-17 10:41:51 GMT 50.596664 39.904945 36,975 161 420 0
2020-07-17 10:41:44 GMT 50.610992 39.897213 36,975 161 419 0
2020-07-17 10:41:41 GMT 50.616947 39.894032 36,975 161 419 0
2020-07-17 10:41:32 GMT 50.633938 39.884827 36,975 160 418 0
2020-07-17 10:41:24 GMT 50.648071 39.877117 36,975 160 418 -64
2020-07-17 10:41:21 GMT 50.652557 39.874657 36,975 161 417 -64
2020-07-17 10:41:13 GMT 50.667572 39.866493 36,975 161 417 0
2020-07-17 10:41:04 GMT 50.684509 39.857285 37,000 161 417 -64
2020-07-17 10:41:00 GMT 50.691467 39.853573 37,000 161 417 -64
2020-07-17 10:40:53 GMT 50.703579 39.847031 37,000 161 417 -64
2020-07-17 10:40:50 GMT 50.710739 39.843182 37,000 161 416 0
2020-07-17 10:40:43 GMT 50.722412 39.836945 37,000 161 416 -64
2020-07-17 10:40:40 GMT 50.727043 39.834442 37,000 161 416 0
2020-07-17 10:40:33 GMT 50.740868 39.827042 37,000 161 416 64
2020-07-17 10:40:28 GMT 50.749695 39.822247 37,000 160 416 0
2020-07-17 10:40:23 GMT 50.758884 39.817200 37,000 160 416 64
2020-07-17 10:40:17 GMT 50.769775 39.811325 37,000 160 416 64
2020-07-17 10:40:12 GMT 50.778156 39.806747 37,000 160 416 0
2020-07-17 10:40:02 GMT 50.796543 39.796753 37,000 161 417 -64
2020-07-17 10:39:58 GMT 50.803391 39.792999 37,000 161 417 -64
2020-07-17 10:39:52 GMT 50.814560 39.786911 37,000 160 416 0
2020-07-17 10:39:42 GMT 50.833237 39.776745 37,000 161 416 64
2020-07-17 10:39:31 GMT 50.852455 39.766312 37,000 161 417 64
2020-07-17 10:39:21 GMT 50.870468 39.756470 37,000 160 418 -64
2020-07-17 10:39:10 GMT 50.890045 39.745789 37,000 160 418 -64
2020-07-17 10:39:01 GMT 50.908081 39.735916 37,025 160 418 -64
2020-07-17 10:38:50 GMT 50.927124 39.725418 37,025 160 417 0
2020-07-17 10:38:40 GMT 50.945206 39.715504 37,000 160 417 0
2020-07-17 10:38:30 GMT 50.964413 39.704895 37,000 160 417 64
2020-07-17 10:38:19 GMT 50.983360 39.694443 37,000 161 417 0
2020-07-17 10:38:09 GMT 51.001236 39.684677 37,000 161 417 0
2020-07-17 10:37:58 GMT 51.021194 39.673710 37,000 160 418 0
2020-07-17 10:37:49 GMT 51.039173 39.663849 37,000 160 418 0
2020-07-17 10:37:38 GMT 51.057861 39.653591 37,000 160 418 0
2020-07-17 10:37:28 GMT 51.076813 39.643127 37,000 160 418 0
2020-07-17 10:37:18 GMT 51.094944 39.633179 37,000 160 418 0
2020-07-17 10:37:08 GMT 51.113983 39.622639 37,000 160 418 0
2020-07-17 10:36:57 GMT 51.132324 39.612503 37,000 160 418 -64
2020-07-17 10:36:47 GMT 51.151382 39.602001 37,000 160 418 0
2020-07-17 10:36:37 GMT 51.170078 39.591675 37,000 160 418 0
2020-07-17 10:36:26 GMT 51.189072 39.581223 37,000 160 419 64
2020-07-17 10:36:16 GMT 51.207695 39.570847 36,975 160 419 -64
2020-07-17 10:36:06 GMT 51.226643 39.560318 37,000 160 419 0
2020-07-17 10:35:56 GMT 51.244938 39.550095 37,000 160 419 0
2020-07-17 10:35:46 GMT 51.263557 39.539719 37,000 160 419 0
2020-07-17 10:35:35 GMT 51.282551 39.529114 37,000 160 419 -64
2020-07-17 10:35:25 GMT 51.301300 39.518639 37,000 160 419 0
2020-07-17 10:35:15 GMT 51.319565 39.508396 37,000 160 419 0
2020-07-17 10:35:07 GMT 51.339622 39.497299 37,000 160 420 -64
2020-07-17 10:34:54 GMT 51.357407 39.487381 37,000 160 420 -64
2020-07-17 10:34:44 GMT 51.376511 39.476624 37,025 160 420 -64
2020-07-17 10:34:36 GMT 51.391708 39.467937 37,025 160 420 0
2020-07-17 10:34:33 GMT 51.395626 39.465714 37,025 160 420 0
2020-07-17 10:34:26 GMT 51.413818 39.455246 37,025 160 421 64
2020-07-17 10:34:16 GMT 51.430401 39.445877 37,000 160 421 64
2020-07-17 10:34:10 GMT 51.438686 39.441223 37,000 160 421 64
2020-07-17 10:34:05 GMT 51.448700 39.435650 37,000 160 421 0
2020-07-17 10:34:01 GMT 51.454094 39.432602 37,000 160 422 0
2020-07-17 10:33:55 GMT 51.467102 39.425327 37,025 160 422 0
2020-07-17 10:33:52 GMT 51.471039 39.423065 37,025 160 422 -64
2020-07-17 10:33:42 GMT 51.489616 39.412613 37,025 160 422 0
2020-07-17 10:33:35 GMT 51.504044 39.404396 37,025 160 422 0
2020-07-17 10:33:22 GMT 51.527435 39.391182 37,025 160 422 -64
2020-07-17 10:33:12 GMT 51.545654 39.380939 37,025 160 422 0
2020-07-17 10:33:04 GMT 51.560394 39.372623 37,025 160 422 64
2020-07-17 10:33:01 GMT 51.564892 39.370117 37,025 160 422 64
2020-07-17 10:32:54 GMT 51.578903 39.362259 37,025 160 422 64
2020-07-17 10:32:51 GMT 51.584152 39.359264 37,025 160 423 64
2020-07-17 10:32:44 GMT 51.597664 39.351578 37,025 160 423 0
2020-07-17 10:32:41 GMT 51.602646 39.348679 37,000 160 423 0
2020-07-17 10:32:34 GMT 51.617294 39.340408 37,000 160 424 0
2020-07-17 10:32:30 GMT 51.621918 39.337734 37,000 160 424 0
2020-07-17 10:32:23 GMT 51.635464 39.330063 37,000 160 423 0
2020-07-17 10:32:20 GMT 51.640816 39.327011 37,000 160 423 64
2020-07-17 10:32:10 GMT 51.659252 39.316559 37,000 160 424 64
2020-07-17 10:32:00 GMT 51.678802 39.305496 37,000 160 424 0
2020-07-17 10:31:50 GMT 51.696945 39.295200 37,000 160 423 0
2020-07-17 10:31:43 GMT 51.710770 39.287331 37,000 160 422 64
2020-07-17 10:31:39 GMT 51.716370 39.284210 37,000 160 422 0
2020-07-17 10:31:32 GMT 51.729637 39.276733 37,000 160 422 0
2020-07-17 10:31:29 GMT 51.735260 39.273598 37,000 160 422 0
2020-07-17 10:31:22 GMT 51.748772 39.265976 37,000 160 421 64
2020-07-17 10:31:19 GMT 51.753479 39.263355 36,975 160 421 64
2020-07-17 10:31:09 GMT 51.772282 39.252625 36,975 160 422 0
2020-07-17 10:31:01 GMT 51.785873 39.244843 36,975 160 421 0
2020-07-17 10:30:58 GMT 51.791553 39.241486 36,975 160 421 0
2020-07-17 10:30:52 GMT 51.804771 39.233856 36,975 160 421 0
2020-07-17 10:30:48 GMT 51.809784 39.230915 36,975 160 421 64
2020-07-17 10:30:41 GMT 51.823860 39.223022 36,975 161 421 64
2020-07-17 10:30:38 GMT 51.829399 39.220047 36,975 162 421 0
2020-07-17 10:30:31 GMT 51.842712 39.213257 36,950 162 421 0
2020-07-17 10:30:28 GMT 51.847740 39.210739 36,950 162 420 0
2020-07-17 10:30:21 GMT 51.861103 39.204025 36,975 162 420 0
2020-07-17 10:30:17 GMT 51.867142 39.201000 36,975 162 420 0
2020-07-17 10:30:10 GMT 51.880188 39.194489 36,975 162 420 0
2020-07-17 10:30:07 GMT 51.885773 39.191742 36,975 162 420 0
2020-07-17 10:30:01 GMT 51.899506 39.184856 36,975 162 421 -64
2020-07-17 10:29:57 GMT 51.905231 39.181877 36,975 162 420 -64
2020-07-17 10:29:50 GMT 51.917358 39.175720 36,975 162 420 0
2020-07-17 10:29:46 GMT 51.924591 39.172058 36,975 162 421 0
2020-07-17 10:29:40 GMT 51.936749 39.165791 36,975 162 421 0
2020-07-17 10:29:35 GMT 51.945145 39.161530 36,975 162 421 0
2020-07-17 10:29:30 GMT 51.955536 39.156113 36,975 162 421 -64
2020-07-17 10:29:26 GMT 51.962036 39.152756 36,975 162 421 -64
2020-07-17 10:29:19 GMT 51.974922 39.146091 36,975 162 421 -64
2020-07-17 10:29:16 GMT 51.981125 39.142914 36,975 162 421 -64
2020-07-17 10:29:10 GMT 51.993683 39.136440 36,975 162 422 0
2020-07-17 10:29:05 GMT 52.000259 39.132996 37,000 162 422 0
2020-07-17 10:28:59 GMT 52.012115 39.126816 37,000 162 422 0
2020-07-17 10:28:55 GMT 52.019531 39.122925 37,000 162 422 0
2020-07-17 10:28:49 GMT 52.031067 39.116974 37,000 162 423 -64
2020-07-17 10:28:45 GMT 52.038235 39.113213 37,000 162 423 -64
2020-07-17 10:28:39 GMT 52.050335 39.107014 37,000 162 423 -64
2020-07-17 10:28:35 GMT 52.057480 39.103317 37,000 162 423 -64
2020-07-17 10:28:28 GMT 52.070526 39.096527 37,000 162 424 -64
2020-07-17 10:28:25 GMT 52.076157 39.093628 37,000 162 424 -64
2020-07-17 10:28:19 GMT 52.089020 39.086990 37,025 162 425 -64
2020-07-17 10:28:14 GMT 52.096794 39.083000 37,025 162 425 -128
2020-07-17 10:28:08 GMT 52.107697 39.077301 37,025 162 426 -64
2020-07-17 10:28:03 GMT 52.117001 39.072563 37,025 162 426 -64
2020-07-17 10:27:58 GMT 52.126354 39.067696 37,050 162 426 -64
2020-07-17 10:27:53 GMT 52.134598 39.063457 37,050 162 426 0
2020-07-17 10:27:48 GMT 52.146000 39.057495 37,050 162 427 -64
2020-07-17 10:27:43 GMT 52.153427 39.053650 37,050 162 427 -64
2020-07-17 10:27:38 GMT 52.164505 39.047928 37,050 162 426 0
2020-07-17 10:27:33 GMT 52.172974 39.043579 37,050 162 426 0
2020-07-17 10:27:28 GMT 52.183804 39.037956 37,050 162 427 0
2020-07-17 10:27:23 GMT 52.191971 39.033737 37,050 162 428 0
2020-07-17 10:27:17 GMT 52.202793 39.028145 37,050 162 428 0
2020-07-17 10:27:13 GMT 52.211197 39.023819 37,050 162 428 0
2020-07-17 10:27:07 GMT 52.222137 39.018173 37,050 162 429 0
2020-07-17 10:27:02 GMT 52.230835 39.013748 37,050 162 430 0
2020-07-17 10:26:57 GMT 52.241638 39.008179 37,050 162 430 0
2020-07-17 10:26:52 GMT 52.251068 39.003296 37,050 162 430 0
2020-07-17 10:26:46 GMT 52.261219 38.998089 37,050 162 431 64
2020-07-17 10:26:42 GMT 52.269241 38.993912 37,050 162 431 0
2020-07-17 10:26:37 GMT 52.280045 38.988342 37,050 162 431 64
2020-07-17 10:26:31 GMT 52.289803 38.983257 37,025 162 431 64
2020-07-17 10:26:26 GMT 52.299957 38.978043 37,025 162 431 0
2020-07-17 10:26:21 GMT 52.309250 38.973236 37,025 162 431 0
2020-07-17 10:26:16 GMT 52.319035 38.968193 37,025 162 431 0
2020-07-17 10:26:10 GMT 52.328979 38.963013 37,025 162 430 64
2020-07-17 10:26:05 GMT 52.338821 38.957825 37,025 162 430 64
2020-07-17 10:26:01 GMT 52.347702 38.953171 37,025 162 430 64
2020-07-17 10:25:56 GMT 52.357361 38.948059 37,025 162 431 64
2020-07-17 10:25:50 GMT 52.366707 38.943157 37,025 162 430 0
2020-07-17 10:25:46 GMT 52.376999 38.937759 37,025 162 430 0
2020-07-17 10:25:40 GMT 52.386581 38.932880 37,000 163 429 0
2020-07-17 10:25:35 GMT 52.396080 38.928326 37,025 164 429 0
2020-07-17 10:25:30 GMT 52.405518 38.924026 37,000 164 428 64
2020-07-17 10:25:25 GMT 52.415913 38.919380 37,000 164 428 64
2020-07-17 10:25:19 GMT 52.426849 38.914490 37,000 164 427 64
2020-07-17 10:25:15 GMT 52.435184 38.910828 37,000 164 427 64
2020-07-17 10:25:09 GMT 52.445053 38.906433 37,000 164 427 0
2020-07-17 10:25:04 GMT 52.454597 38.902195 37,000 164 426 0
2020-07-17 10:24:59 GMT 52.464569 38.897781 37,000 164 426 0
2020-07-17 10:24:55 GMT 52.473591 38.893719 37,000 164 427 0
2020-07-17 10:24:49 GMT 52.484161 38.889008 37,000 164 426 0
2020-07-17 10:24:44 GMT 52.492954 38.884930 37,000 164 426 0
2020-07-17 10:24:38 GMT 52.503845 38.879929 37,000 164 425 -64
2020-07-17 10:24:34 GMT 52.512955 38.875809 37,000 164 425 0
2020-07-17 10:24:28 GMT 52.522888 38.871277 37,000 164 425 0
2020-07-17 10:24:24 GMT 52.531593 38.867352 37,000 164 425 0
2020-07-17 10:24:18 GMT 52.542480 38.862534 37,000 164 425 0
2020-07-17 10:24:13 GMT 52.551796 38.858250 37,000 164 424 64
2020-07-17 10:24:08 GMT 52.561432 38.853935 36,975 164 424 128
2020-07-17 10:24:04 GMT 52.570324 38.849854 36,975 164 424 64
2020-07-17 10:23:57 GMT 52.581264 38.844990 36,975 164 424 64
2020-07-17 10:23:53 GMT 52.590157 38.840984 36,950 164 423 64
2020-07-17 10:23:47 GMT 52.600723 38.836277 36,950 164 423 0
2020-07-17 10:23:43 GMT 52.609009 38.832588 36,950 164 423 0
2020-07-17 10:23:37 GMT 52.619293 38.828049 36,950 164 423 0
2020-07-17 10:23:33 GMT 52.627991 38.824158 36,950 164 422 0
2020-07-17 10:23:27 GMT 52.639297 38.819122 36,950 164 423 64
2020-07-17 10:23:22 GMT 52.647583 38.815384 36,950 164 423 64
2020-07-17 10:23:16 GMT 52.658844 38.810272 36,950 164 423 0
2020-07-17 10:23:13 GMT 52.666687 38.806694 36,950 164 422 0
2020-07-17 10:23:06 GMT 52.677841 38.801575 36,950 164 422 0
2020-07-17 10:23:02 GMT 52.685532 38.798065 36,950 164 422 0
2020-07-17 10:22:55 GMT 52.697937 38.792343 36,950 164 422 0
2020-07-17 10:22:52 GMT 52.704952 38.789116 36,950 164 422 -64
2020-07-17 10:22:46 GMT 52.716522 38.783798 36,975 164 422 0
2020-07-17 10:22:42 GMT 52.724030 38.780365 36,975 164 422 0
2020-07-17 10:22:38 GMT 52.731071 38.777187 36,975 164 422 -64
2020-07-17 10:22:35 GMT 52.735886 38.774948 36,975 164 422 -64
2020-07-17 10:22:32 GMT 52.743759 38.771362 36,975 164 422 -64
2020-07-17 10:22:25 GMT 52.754765 38.766277 36,975 164 422 -64
2020-07-17 10:22:21 GMT 52.762573 38.762665 36,975 164 422 -64
2020-07-17 10:22:15 GMT 52.774319 38.757256 37,000 164 423 -64
2020-07-17 10:22:10 GMT 52.782486 38.753510 37,000 164 423 -64
2020-07-17 10:22:05 GMT 52.793381 38.748474 37,025 164 423 0
2020-07-17 10:22:00 GMT 52.801968 38.744541 37,000 164 423 0
2020-07-17 10:21:54 GMT 52.812908 38.739597 37,000 164 424 0
2020-07-17 10:21:50 GMT 52.821854 38.735504 37,000 164 424 0
2020-07-17 10:21:44 GMT 52.831650 38.731003 37,000 164 424 -64
2020-07-17 10:21:39 GMT 52.841309 38.726578 37,025 164 425 -64
2020-07-17 10:21:33 GMT 52.852570 38.721394 37,025 164 425 -64
2020-07-17 10:21:29 GMT 52.860111 38.717861 37,025 164 425 -64
2020-07-17 10:21:24 GMT 52.870541 38.713074 37,025 164 425 -64
2020-07-17 10:21:20 GMT 52.878082 38.709541 37,025 164 426 0
2020-07-17 10:21:17 GMT 52.886459 38.705696 37,025 164 426 64
2020-07-17 10:21:13 GMT 52.890335 38.703918 37,025 164 426 64
2020-07-17 10:21:08 GMT 52.900772 38.699188 37,025 164 427 64
2020-07-17 10:21:03 GMT 52.909698 38.695068 37,025 164 427 64
2020-07-17 10:20:58 GMT 52.919037 38.690796 37,000 164 428 64
2020-07-17 10:20:55 GMT 52.924820 38.688118 37,000 164 428 64
2020-07-17 10:20:52 GMT 52.930847 38.685303 37,000 164 428 0
2020-07-17 10:20:49 GMT 52.938553 38.681763 37,000 164 428 0
2020-07-17 10:20:46 GMT 52.942928 38.679722 37,000 164 428 0
2020-07-17 10:20:42 GMT 52.950378 38.676270 37,000 164 428 0
2020-07-17 10:20:38 GMT 52.958385 38.672581 37,000 164 429 0
2020-07-17 10:20:35 GMT 52.964111 38.669991 37,025 164 429 0
2020-07-17 10:20:32 GMT 52.968979 38.667679 37,025 164 429 0
2020-07-17 10:20:29 GMT 52.974884 38.665009 37,025 164 429 0
2020-07-17 10:20:26 GMT 52.983307 38.661118 37,000 164 429 0
2020-07-17 10:20:22 GMT 52.987991 38.658928 37,000 164 429 0
2020-07-17 10:20:19 GMT 52.994019 38.656158 37,000 164 430 0
2020-07-17 10:20:12 GMT 53.008163 38.649597 37,000 164 430 0
2020-07-17 10:20:08 GMT 53.014759 38.646606 37,000 164 430 0
2020-07-17 10:20:04 GMT 53.022579 38.642918 37,000 164 430 0
2020-07-17 10:19:59 GMT 53.034393 38.637543 37,000 164 430 64
2020-07-17 10:19:54 GMT 53.042038 38.633957 37,000 164 430 64
2020-07-17 10:19:51 GMT 53.047112 38.631618 37,000 164 431 64
2020-07-17 10:19:48 GMT 53.054123 38.628464 37,000 164 431 64
2020-07-17 10:19:41 GMT 53.067268 38.622437 37,000 164 431 64
2020-07-17 10:19:38 GMT 53.073231 38.619690 36,975 164 431 0
2020-07-17 10:19:31 GMT 53.086166 38.613739 36,975 164 431 0
2020-07-17 10:19:28 GMT 53.092594 38.610744 36,975 164 431 -64
2020-07-17 10:19:24 GMT 53.101440 38.606686 37,000 164 431 0
2020-07-17 10:19:20 GMT 53.107025 38.604099 37,000 164 431 -64
2020-07-17 10:19:17 GMT 53.112854 38.601326 37,000 164 431 0
2020-07-17 10:19:12 GMT 53.121597 38.597313 37,000 164 431 0
2020-07-17 10:19:08 GMT 53.131977 38.592464 37,000 164 431 -64
2020-07-17 10:19:03 GMT 53.140549 38.588535 37,000 164 432 0
2020-07-17 10:19:00 GMT 53.145355 38.586338 37,000 164 432 0
2020-07-17 10:18:57 GMT 53.151390 38.583500 37,000 164 432 -64
2020-07-17 10:18:53 GMT 53.160690 38.579197 37,000 164 432 0
2020-07-17 10:18:49 GMT 53.165726 38.576923 37,000 164 433 0
2020-07-17 10:18:46 GMT 53.172710 38.573727 37,025 164 432 0
2020-07-17 10:18:42 GMT 53.185421 38.567829 37,000 164 433 0
2020-07-17 10:18:39 GMT 53.185421 38.567829 37,000 164 432 0
2020-07-17 10:18:36 GMT 53.190903 38.565228 37,000 164 433 0
2020-07-17 10:18:32 GMT 53.199432 38.561283 37,000 164 433 64
2020-07-17 10:18:29 GMT 53.204544 38.558872 37,000 164 433 0
2020-07-17 10:18:22 GMT 53.219330 38.551888 37,000 164 433 -128
2020-07-17 10:18:19 GMT 53.224136 38.549614 37,000 164 433 -128
2020-07-17 10:18:12 GMT 53.240398 38.541977 37,025 164 433 -64
2020-07-17 10:18:09 GMT 53.244450 38.540119 37,025 164 433 -64
2020-07-17 10:18:06 GMT 53.249847 38.537617 37,025 164 433 -64
2020-07-17 10:17:58 GMT 53.264465 38.530750 37,025 164 433 0
2020-07-17 10:17:55 GMT 53.284111 38.521542 37,025 164 434 0
2020-07-17 10:17:48 GMT 53.284111 38.521542 37,025 164 434 0
2020-07-17 10:17:45 GMT 53.290787 38.518459 37,025 164 434 0
2020-07-17 10:17:38 GMT 53.304108 38.512260 37,025 164 434 0
2020-07-17 10:17:35 GMT 53.309326 38.509827 37,025 164 434 0
2020-07-17 10:17:31 GMT 53.317978 38.505745 37,025 164 435 64
2020-07-17 10:17:26 GMT 53.329311 38.500538 37,025 164 434 0
2020-07-17 10:17:20 GMT 53.337891 38.496487 37,025 164 434 0
2020-07-17 10:17:15 GMT 53.347595 38.492012 37,025 164 435 0
2020-07-17 10:17:10 GMT 53.358032 38.487148 37,025 164 435 0
2020-07-17 10:17:05 GMT 53.367874 38.482597 37,025 164 435 0
2020-07-17 10:17:00 GMT 53.377579 38.478046 37,025 164 435 0
2020-07-17 10:16:57 GMT 53.383266 38.475334 37,025 164 435 0
2020-07-17 10:16:50 GMT 53.397858 38.468472 37,025 164 435 64
2020-07-17 10:16:44 GMT 53.407333 38.463997 37,025 164 435 0
2020-07-17 10:16:38 GMT 53.424419 38.455864 37,000 164 435 64
2020-07-17 10:16:35 GMT 53.427166 38.454571 37,000 164 435 64
2020-07-17 10:16:27 GMT 53.440292 38.448273 37,000 164 435 64
2020-07-17 10:16:24 GMT 53.446381 38.445320 36,975 164 435 64
2020-07-17 10:16:15 GMT 53.465149 38.436455 37,000 164 435 0
2020-07-17 10:16:12 GMT 53.472107 38.433159 37,000 164 435 0
2020-07-17 10:16:04 GMT 53.485245 38.426956 37,000 164 435 0
2020-07-17 10:15:59 GMT 53.494202 38.422745 37,000 164 435 0
2020-07-17 10:15:54 GMT 53.503418 38.418484 37,000 164 435 0
2020-07-17 10:15:51 GMT 53.512589 38.414101 37,000 164 434 -64
2020-07-17 10:15:45 GMT 53.521729 38.409775 37,000 164 434 0
2020-07-17 10:15:42 GMT 53.529053 38.406319 37,000 164 434 0
2020-07-17 10:15:38 GMT 53.534935 38.403599 37,000 164 434 0
2020-07-17 10:15:33 GMT 53.544891 38.398945 37,000 164 433 0
2020-07-17 10:15:28 GMT 53.557323 38.393097 37,000 164 434 0
2020-07-17 10:15:23 GMT 53.564896 38.389446 37,000 164 434 0
2020-07-17 10:15:19 GMT 53.572220 38.385994 37,000 164 433 0
2020-07-17 10:15:13 GMT 53.583984 38.380424 37,000 164 433 0
2020-07-17 10:15:09 GMT 53.591587 38.376778 37,000 164 433 0
2020-07-17 10:15:02 GMT 53.604950 38.370380 37,000 164 433 0
2020-07-17 10:14:57 GMT 53.613785 38.366142 37,000 164 433 0
2020-07-17 10:14:54 GMT 53.620331 38.363003 37,025 164 433 -64
2020-07-17 10:14:51 GMT 53.625244 38.360703 37,000 164 433 0
2020-07-17 10:14:47 GMT 53.635529 38.355705 37,025 164 433 -64
2020-07-17 10:14:41 GMT 53.644470 38.351494 37,025 164 433 0
2020-07-17 10:14:38 GMT 53.650543 38.348564 37,025 164 433 0
2020-07-17 10:14:32 GMT 53.665009 38.341736 37,000 164 433 64
2020-07-17 10:14:28 GMT 53.670864 38.338974 37,000 164 433 0
2020-07-17 10:14:21 GMT 53.684135 38.332592 37,000 164 434 0
2020-07-17 10:14:17 GMT 53.690598 38.329571 37,000 164 433 0
2020-07-17 10:14:11 GMT 53.703594 38.323383 37,025 164 433 -64
2020-07-17 10:14:05 GMT 53.715454 38.317722 37,025 164 433 0
2020-07-17 10:14:01 GMT 53.722778 38.314194 37,025 164 433 0
2020-07-17 10:13:56 GMT 53.731430 38.310112 37,000 164 433 0
2020-07-17 10:13:51 GMT 53.742371 38.304852 37,000 164 433 0
2020-07-17 10:13:47 GMT 53.749771 38.301331 37,000 164 433 0
2020-07-17 10:13:41 GMT 53.763336 38.294807 37,000 164 433 0
2020-07-17 10:13:37 GMT 53.770767 38.291313 37,000 164 433 -64
2020-07-17 10:13:30 GMT 53.782013 38.285862 37,025 164 433 0
2020-07-17 10:13:27 GMT 53.789017 38.282509 37,025 164 433 0
2020-07-17 10:13:20 GMT 53.801056 38.276680 37,025 164 433 64
2020-07-17 10:13:14 GMT 53.811874 38.271519 37,000 164 433 64
2020-07-17 10:13:08 GMT 53.823120 38.266087 37,000 164 433 128
2020-07-17 10:13:04 GMT 53.831772 38.261929 37,000 164 433 64
2020-07-17 10:12:59 GMT 53.840549 38.257706 37,000 164 433 64
2020-07-17 10:12:54 GMT 53.850929 38.252777 37,000 164 433 0
2020-07-17 10:12:50 GMT 53.860706 38.248093 36,975 164 433 0
2020-07-17 10:12:44 GMT 53.870407 38.243408 36,975 164 432 0
2020-07-17 10:12:39 GMT 53.879654 38.238857 36,975 164 432 0
2020-07-17 10:12:33 GMT 53.891373 38.233208 37,000 164 432 -64
2020-07-17 10:12:29 GMT 53.899345 38.229351 37,000 164 432 -64
2020-07-17 10:12:23 GMT 53.909679 38.224342 37,000 164 432 0
2020-07-17 10:12:18 GMT 53.919456 38.219658 37,000 164 432 0
2020-07-17 10:12:13 GMT 53.929047 38.215054 37,000 164 431 0
2020-07-17 10:12:08 GMT 53.938339 38.210529 37,000 164 432 -64
2020-07-17 10:12:05 GMT 53.945339 38.207218 36,975 164 432 0
2020-07-17 10:12:02 GMT 53.950241 38.204800 37,000 164 432 0
2020-07-17 10:11:57 GMT 53.962006 38.199223 37,000 164 432 -64
2020-07-17 10:11:52 GMT 53.969315 38.195667 37,000 164 431 0
2020-07-17 10:11:49 GMT 53.976017 38.192436 37,000 164 431 0
2020-07-17 10:11:42 GMT 53.988865 38.186214 37,000 164 431 0
2020-07-17 10:11:37 GMT 53.998035 38.181770 37,000 164 431 0
2020-07-17 10:11:34 GMT 54.006088 38.177895 37,000 164 431 64
2020-07-17 10:11:31 GMT 54.011627 38.175228 37,000 164 431 0
2020-07-17 10:11:26 GMT 54.022476 38.170036 36,975 164 432 0
2020-07-17 10:11:21 GMT 54.030251 38.166264 36,975 164 432 0
2020-07-17 10:11:18 GMT 54.042206 38.160461 36,975 164 432 0
2020-07-17 10:11:11 GMT 54.056396 38.153557 37,000 163 431 0
2020-07-17 10:11:07 GMT 54.056396 38.153557 36,975 163 431 0
2020-07-17 10:11:04 GMT 54.061298 38.151154 36,975 163 431 0
2020-07-17 10:11:00 GMT 54.070404 38.146729 37,000 163 431 0
2020-07-17 10:10:57 GMT 54.076057 38.143967 37,000 163 431 0
2020-07-17 10:10:53 GMT 54.084667 38.139767 37,000 163 431 0
2020-07-17 10:10:47 GMT 54.095856 38.134331 37,000 163 431 0
2020-07-17 10:10:40 GMT 54.109634 38.127583 36,975 163 432 0
2020-07-17 10:10:35 GMT 54.116463 38.124256 37,000 163 432 0
2020-07-17 10:10:32 GMT 54.125633 38.119652 37,000 163 432 0
2020-07-17 10:10:29 GMT 54.129364 38.117851 37,000 163 432 0
2020-07-17 10:10:26 GMT 54.135315 38.114948 37,000 163 432 0
2020-07-17 10:10:21 GMT 54.144516 38.110394 37,000 163 432 0
2020-07-17 10:10:18 GMT 54.149460 38.107964 37,000 163 432 0
2020-07-17 10:10:15 GMT 54.155640 38.104900 37,000 163 432 0
2020-07-17 10:10:09 GMT 54.169350 38.098164 37,000 164 432 0
2020-07-17 10:10:05 GMT 54.175003 38.095406 37,000 164 432 0
2020-07-17 10:09:58 GMT 54.189274 38.088470 37,000 163 432 0
2020-07-17 10:09:54 GMT 54.195045 38.085640 37,000 163 432 0
2020-07-17 10:09:50 GMT 54.204075 38.081200 37,000 163 432 0
2020-07-17 10:09:47 GMT 54.208969 38.078770 37,000 163 432 -64
2020-07-17 10:09:44 GMT 54.214508 38.076023 37,000 163 432 -64
2020-07-17 10:09:41 GMT 54.222977 38.071865 37,000 163 432 0
2020-07-17 10:09:35 GMT 54.233917 38.066448 37,000 163 433 0
2020-07-17 10:09:28 GMT 54.247925 38.059544 37,025 163 433 0
2020-07-17 10:09:24 GMT 54.253922 38.056641 37,000 163 433 0
2020-07-17 10:09:19 GMT 54.262161 38.052559 37,000 163 433 0
2020-07-17 10:09:16 GMT 54.269669 38.048874 37,000 163 433 0
2020-07-17 10:09:13 GMT 54.273743 38.046909 37,000 163 433 0
2020-07-17 10:09:09 GMT 54.282578 38.042583 37,025 163 433 0
2020-07-17 10:09:06 GMT 54.289406 38.039162 37,025 163 434 0
2020-07-17 10:09:03 GMT 54.293564 38.037170 37,025 163 434 0
2020-07-17 10:09:00 GMT 54.301743 38.033169 37,025 164 435 -64
2020-07-17 10:08:55 GMT 54.308678 38.029758 37,025 163 434 0
2020-07-17 10:08:52 GMT 54.316780 38.025761 37,025 164 434 0
2020-07-17 10:08:49 GMT 54.320644 38.023849 37,025 164 434 0
2020-07-17 10:08:43 GMT 54.333164 38.017773 37,025 164 435 0
2020-07-17 10:08:39 GMT 54.340622 38.014149 37,025 164 435 0
2020-07-17 10:08:33 GMT 54.352486 38.008286 37,025 164 435 0
2020-07-17 10:08:29 GMT 54.362167 38.003540 37,025 164 435 -64
2020-07-17 10:08:23 GMT 54.372482 37.998398 37,025 164 435 0
2020-07-17 10:08:18 GMT 54.381180 37.994198 37,025 164 435 0
2020-07-17 10:08:12 GMT 54.392284 37.988724 37,025 164 435 -64
2020-07-17 10:08:07 GMT 54.402714 37.983566 37,025 163 436 0
2020-07-17 10:08:02 GMT 54.411839 37.979069 37,025 163 436 0
2020-07-17 10:07:58 GMT 54.422264 37.973911 37,025 163 437 64
2020-07-17 10:07:54 GMT 54.428642 37.970749 37,025 163 437 64
2020-07-17 10:07:47 GMT 54.441513 37.964470 37,025 164 436 64
2020-07-17 10:07:42 GMT 54.451584 37.959461 37,025 164 436 64
2020-07-17 10:07:38 GMT 54.471657 37.949608 37,000 163 437 64
2020-07-17 10:07:31 GMT 54.471657 37.949608 37,000 163 437 0
2020-07-17 10:07:27 GMT 54.484543 37.943222 37,000 163 437 0
2020-07-17 10:07:23 GMT 54.495865 37.937538 37,000 163 437 0
2020-07-17 10:07:19 GMT 54.495865 37.937538 37,000 163 437 0
2020-07-17 10:07:15 GMT 54.503826 37.933544 37,000 163 437 0
2020-07-17 10:07:11 GMT 54.511276 37.929813 37,000 163 437 0
2020-07-17 10:07:08 GMT 54.517746 37.926552 37,000 163 437 64
2020-07-17 10:07:05 GMT 54.522587 37.924137 37,000 163 437 64
2020-07-17 10:07:01 GMT 54.531601 37.919716 36,975 163 437 64
2020-07-17 10:06:57 GMT 54.537643 37.916725 37,000 163 437 64
2020-07-17 10:06:54 GMT 54.545116 37.912987 36,975 163 438 64
2020-07-17 10:06:51 GMT 54.551010 37.910023 36,975 163 438 64
2020-07-17 10:06:47 GMT 54.558014 37.906548 36,975 163 437 0
2020-07-17 10:06:44 GMT 54.563232 37.903961 36,975 163 437 0
2020-07-17 10:06:40 GMT 54.571976 37.899601 36,975 163 437 0
2020-07-17 10:06:36 GMT 54.578568 37.896290 36,975 163 437 64
2020-07-17 10:06:33 GMT 54.584564 37.893219 36,975 163 437 64
2020-07-17 10:06:29 GMT 54.592117 37.889423 37,000 159 440 64
2020-07-17 10:06:26 GMT 54.598976 37.885937 36,975 163 437 0
2020-07-17 10:06:21 GMT 54.607685 37.881523 36,975 163 437 -64
2020-07-17 10:06:18 GMT 54.612625 37.879082 36,975 163 437 0
2020-07-17 10:06:15 GMT 54.619217 37.875690 36,975 163 436 0
2020-07-17 10:06:11 GMT 54.628773 37.870872 36,975 163 436 64
2020-07-17 10:06:08 GMT 54.634872 37.867771 36,975 163 436 64
2020-07-17 10:06:05 GMT 54.644276 37.862965 36,975 163 437 64
2020-07-17 10:05:59 GMT 54.649300 37.860470 36,975 163 437 64
2020-07-17 10:05:54 GMT 54.659355 37.855473 36,975 163 437 0
2020-07-17 10:05:51 GMT 54.666153 37.852062 36,975 163 437 0
2020-07-17 10:05:48 GMT 54.672764 37.848732 36,975 163 437 -64
2020-07-17 10:05:45 GMT 54.679230 37.845478 36,975 163 437 -64
2020-07-17 10:05:41 GMT 54.685333 37.842407 36,975 163 437 -64
2020-07-17 10:05:37 GMT 54.693478 37.838245 36,975 163 437 0
2020-07-17 10:05:34 GMT 54.699188 37.835381 36,975 163 437 -64
2020-07-17 10:05:29 GMT 54.708191 37.830921 36,975 163 437 0
2020-07-17 10:05:26 GMT 54.716522 37.826675 36,975 163 437 0
2020-07-17 10:05:19 GMT 54.727478 37.821243 36,975 163 437 0
2020-07-17 10:05:16 GMT 54.732330 37.818817 36,975 163 437 0
2020-07-17 10:05:13 GMT 54.738819 37.815525 36,975 163 437 0
2020-07-17 10:05:10 GMT 54.745468 37.812195 37,000 163 437 0
2020-07-17 10:05:04 GMT 54.757999 37.805870 37,000 163 437 0
2020-07-17 10:05:00 GMT 54.764378 37.802624 37,000 163 437 0
2020-07-17 10:04:57 GMT 54.769405 37.800041 37,000 163 438 -64
2020-07-17 10:04:53 GMT 54.778343 37.795467 37,000 163 437 0
2020-07-17 10:04:48 GMT 54.787422 37.790806 37,000 163 437 0
2020-07-17 10:04:43 GMT 54.797710 37.785645 37,000 163 438 -64
2020-07-17 10:04:39 GMT 54.813862 37.777489 37,000 163 439 0
2020-07-17 10:04:35 GMT 54.813862 37.777489 37,000 163 439 -64
2020-07-17 10:04:32 GMT 54.817726 37.775574 37,000 163 439 -64
2020-07-17 10:04:28 GMT 54.832344 37.768250 37,000 163 438 -64
2020-07-17 10:04:25 GMT 54.832344 37.768250 37,000 163 438 -64
2020-07-17 10:04:22 GMT 54.838909 37.764835 37,000 163 439 0
2020-07-17 10:04:17 GMT 54.846771 37.760654 37,000 151 443 0
2020-07-17 10:04:14 GMT 54.854645 37.756130 37,000 161 440 64
2020-07-17 10:04:11 GMT 54.858307 37.754032 37,000 160 440 64
2020-07-17 10:04:08 GMT 54.865864 37.749271 37,000 159 440 64
2020-07-17 10:04:05 GMT 54.871590 37.745609 37,000 151 443 0
2020-07-17 10:04:02 GMT 54.877167 37.741753 37,000 157 441 64
2020-07-17 10:03:58 GMT 54.883087 37.737537 37,000 157 441 64
2020-07-17 10:03:52 GMT 54.897903 37.726242 37,000 154 442 0
2020-07-17 10:03:48 GMT 54.904541 37.720749 37,000 154 442 -64
2020-07-17 10:03:44 GMT 54.915813 37.710987 37,000 153 443 -64
2020-07-17 10:03:41 GMT 54.915813 37.710987 37,000 152 443 -64
2020-07-17 10:03:37 GMT 54.922577 37.704754 37,000 151 443 -64
2020-07-17 10:03:34 GMT 54.929871 37.697922 37,000 151 443 0
2020-07-17 10:03:31 GMT 54.933746 37.694252 37,000 151 443 -64
2020-07-17 10:03:26 GMT 54.942673 37.685852 37,025 151 443 -64
2020-07-17 10:03:23 GMT 54.948399 37.680443 37,025 151 443 -64
2020-07-17 10:03:18 GMT 54.957138 37.672199 37,025 151 443 -64
2020-07-17 10:03:15 GMT 54.964458 37.665295 37,025 151 444 -64
2020-07-17 10:03:11 GMT 54.971115 37.658970 37,025 151 444 0
2020-07-17 10:03:06 GMT 54.978706 37.651894 37,025 151 444 0
2020-07-17 10:03:02 GMT 54.984924 37.645947 37,025 151 444 0
2020-07-17 10:02:57 GMT 54.996719 37.634830 37,025 151 445 -64
2020-07-17 10:02:52 GMT 55.003609 37.628426 37,025 151 445 -64
2020-07-17 10:02:48 GMT 55.013527 37.619019 37,025 151 446 -64
2020-07-17 10:02:42 GMT 55.023926 37.609192 37,050 151 446 -64
2020-07-17 10:02:39 GMT 55.026886 37.606369 37,050 151 446 0
2020-07-17 10:02:35 GMT 55.044891 37.589317 37,050 151 446 0
2020-07-17 10:02:30 GMT 55.044891 37.589317 37,050 151 446 64
2020-07-17 10:02:27 GMT 55.057610 37.577320 37,025 151 446 64
2020-07-17 10:02:23 GMT 55.057610 37.577320 37,025 151 447 64
2020-07-17 10:02:19 GMT 55.064072 37.571224 37,025 151 447 0
2020-07-17 10:02:16 GMT 55.070320 37.565334 37,025 151 447 0
2020-07-17 10:02:09 GMT 55.082096 37.554184 37,025 151 447 -64
2020-07-17 10:02:05 GMT 55.088615 37.548023 37,025 151 447 -64
2020-07-17 10:02:02 GMT 55.095692 37.541367 37,050 151 447 -64
2020-07-17 10:01:59 GMT 55.101013 37.536243 37,050 151 447 0
2020-07-17 10:01:55 GMT 55.107098 37.530544 37,050 151 447 0
2020-07-17 10:01:51 GMT 55.113800 37.524136 37,050 151 447 64
2020-07-17 10:01:45 GMT 55.126007 37.512413 37,050 151 447 64
2020-07-17 10:01:40 GMT 55.134796 37.504078 37,025 151 447 64
2020-07-17 10:01:35 GMT 55.144058 37.495255 37,025 151 447 0
2020-07-17 10:01:31 GMT 55.151134 37.488514 37,025 151 447 0
2020-07-17 10:01:26 GMT 55.160248 37.479778 37,025 151 447 -64
2020-07-17 10:01:23 GMT 55.165798 37.474449 37,025 151 447 0
2020-07-17 10:01:20 GMT 55.172131 37.468372 37,050 151 447 0
2020-07-17 10:01:17 GMT 55.176830 37.463879 37,050 151 447 0
2020-07-17 10:01:13 GMT 55.182358 37.458614 37,050 151 447 0
2020-07-17 10:01:10 GMT 55.189354 37.451977 37,025 151 447 64
2020-07-17 10:01:06 GMT 55.197498 37.444153 37,025 151 447 64
2020-07-17 10:00:59 GMT 55.207603 37.434414 37,025 151 447 64
2020-07-17 10:00:54 GMT 55.218201 37.424282 37,025 151 447 64
2020-07-17 10:00:51 GMT 55.222183 37.420483 37,000 151 447 64
2020-07-17 10:00:45 GMT 55.234230 37.408947 37,000 151 447 64
2020-07-17 10:00:41 GMT 55.241493 37.402039 37,000 151 447 64
2020-07-17 10:00:38 GMT 55.246941 37.396793 37,000 151 447 64
2020-07-17 10:00:35 GMT 55.252625 37.391403 37,000 151 447 64
2020-07-17 10:00:32 GMT 55.260406 37.383888 37,000 151 447 64
2020-07-17 10:00:28 GMT 55.264206 37.380253 37,000 151 447 64
2020-07-17 10:00:25 GMT 55.272308 37.372498 37,000 151 447 0
2020-07-17 10:00:22 GMT 55.275421 37.369511 37,000 151 447 0
2020-07-17 10:00:19 GMT 55.281189 37.364017 37,000 151 447 0
2020-07-17 10:00:16 GMT 55.293537 37.352100 37,000 151 447 0
2020-07-17 10:00:13 GMT 55.293537 37.352100 37,000 151 446 0
2020-07-17 10:00:09 GMT 55.299225 37.346649 37,000 151 446 0
2020-07-17 10:00:05 GMT 55.305267 37.340782 37,000 151 446 0
2020-07-17 10:00:02 GMT 55.311676 37.334694 37,000 151 446 0
2020-07-17 09:59:59 GMT 55.318069 37.328465 37,000 151 445 0
2020-07-17 09:59:54 GMT 55.326279 37.320557 37,000 151 445 0
2020-07-17 09:59:51 GMT 55.333282 37.313770 37,000 151 445 0
2020-07-17 09:59:48 GMT 55.338413 37.308823 37,000 151 443 0
2020-07-17 09:59:45 GMT 55.342186 37.305241 37,000 151 444 0
2020-07-17 09:59:41 GMT 55.350540 37.297131 37,000 151 444 0
2020-07-17 09:59:38 GMT 55.354843 37.293011 37,000 151 443 -64
2020-07-17 09:59:34 GMT 55.361225 37.286850 37,000 151 444 -64
2020-07-17 09:59:31 GMT 55.368530 37.279762 37,000 151 443 -64
2020-07-17 09:59:27 GMT 55.374069 37.274429 37,000 151 444 0
2020-07-17 09:59:24 GMT 55.378738 37.269905 37,000 151 443 0
2020-07-17 09:59:21 GMT 55.384644 37.264172 37,000 151 443 0
2020-07-17 09:59:18 GMT 55.391903 37.257137 37,000 151 443 64
2020-07-17 09:59:13 GMT 55.400002 37.249313 37,000 151 443 64
2020-07-17 09:59:10 GMT 55.404373 37.245106 37,000 151 443 64
2020-07-17 09:59:07 GMT 55.410198 37.239491 36,975 151 443 64
2020-07-17 09:59:04 GMT 55.415783 37.234081 36,975 151 443 64
2020-07-17 09:59:01 GMT 55.428772 37.221519 36,975 151 443 64
2020-07-17 09:58:57 GMT 55.428772 37.221519 36,975 151 443 64
2020-07-17 09:58:52 GMT 55.437195 37.213360 36,975 151 443 0
2020-07-17 09:58:49 GMT 55.444088 37.206657 36,975 151 443 0
2020-07-17 09:58:46 GMT 55.447403 37.203453 36,975 151 443 0
2020-07-17 09:58:42 GMT 55.461731 37.189552 36,975 151 443 0
2020-07-17 09:58:39 GMT 55.461731 37.189552 36,975 151 443 0
2020-07-17 09:58:36 GMT 55.466949 37.184559 36,975 151 443 0
2020-07-17 09:58:31 GMT 55.475090 37.176704 36,975 151 443 0
2020-07-17 09:58:28 GMT 55.481564 37.170525 36,975 151 442 0
2020-07-17 09:58:24 GMT 55.487148 37.165203 36,975 151 442 0
2020-07-17 09:58:21 GMT 55.492950 37.159592 36,975 151 442 0
2020-07-17 09:58:18 GMT 55.500275 37.152515 36,975 151 442 0
2020-07-17 09:58:15 GMT 55.502975 37.149937 36,975 151 442 0
2020-07-17 09:58:11 GMT 55.512451 37.140781 36,975 151 442 64
2020-07-17 09:58:08 GMT 55.516987 37.136276 36,975 151 442 64
2020-07-17 09:58:05 GMT 55.522247 37.131210 36,975 151 442 64
2020-07-17 09:58:01 GMT 55.528519 37.125050 36,975 150 442 64
2020-07-17 09:57:58 GMT 55.536446 37.117310 36,975 150 442 0
2020-07-17 09:57:55 GMT 55.539917 37.113895 36,975 150 442 0
2020-07-17 09:57:50 GMT 55.548157 37.105824 36,975 150 442 0
2020-07-17 09:57:45 GMT 55.556278 37.097912 36,975 150 442 -64
2020-07-17 09:57:42 GMT 55.563995 37.090260 36,975 150 443 -64
2020-07-17 09:57:39 GMT 55.567497 37.086842 36,975 150 442 0
2020-07-17 09:57:36 GMT 55.573921 37.080574 36,975 150 442 0
2020-07-17 09:57:33 GMT 55.577545 37.076942 36,975 150 442 0
2020-07-17 09:57:30 GMT 55.583885 37.070789 36,975 150 442 0
2020-07-17 09:57:27 GMT 55.590958 37.063877 36,975 150 441 0
2020-07-17 09:57:24 GMT 55.593891 37.060921 36,975 150 441 0
2020-07-17 09:57:20 GMT 55.601898 37.053108 36,975 150 441 0
2020-07-17 09:57:17 GMT 55.608398 37.046646 36,975 150 442 0
2020-07-17 09:57:14 GMT 55.612518 37.042652 36,975 150 442 0
2020-07-17 09:57:09 GMT 55.621445 37.033913 36,975 150 442 -64
2020-07-17 09:57:06 GMT 55.633209 37.022343 37,000 150 442 -64
2020-07-17 09:56:59 GMT 55.645203 37.010609 37,000 150 443 -64
2020-07-17 09:56:53 GMT 55.652039 37.003841 37,000 150 443 -64
2020-07-17 09:56:50 GMT 55.664700 36.991310 37,000 150 442 64
2020-07-17 09:56:46 GMT 55.664700 36.991310 37,000 150 442 0
2020-07-17 09:56:42 GMT 55.669727 36.986420 37,000 151 443 64
2020-07-17 09:56:39 GMT 55.675079 36.981182 37,000 151 443 64
2020-07-17 09:56:36 GMT 55.682510 36.973904 37,000 151 443 64
2020-07-17 09:56:32 GMT 55.687790 36.968739 37,000 151 443 64
2020-07-17 09:56:28 GMT 55.694401 36.962215 36,975 151 443 64
2020-07-17 09:56:25 GMT 55.699753 36.956978 36,975 151 443 0
2020-07-17 09:56:21 GMT 55.707001 36.949852 36,975 151 443 -64
2020-07-17 09:56:18 GMT 55.712540 36.944359 37,000 151 443 -64
2020-07-17 09:56:15 GMT 55.718307 36.938782 37,000 150 444 -64
2020-07-17 09:56:12 GMT 55.724098 36.933029 37,000 150 444 -64
2020-07-17 09:56:08 GMT 55.731216 36.926048 37,000 150 444 -64
2020-07-17 09:56:04 GMT 55.742661 36.914726 37,025 150 447 0
2020-07-17 09:56:01 GMT 55.742661 36.914726 37,000 150 445 -64
2020-07-17 09:55:58 GMT 55.749748 36.907799 37,000 150 445 0
2020-07-17 09:55:54 GMT 55.755066 36.902493 37,000 150 445 -64
2020-07-17 09:55:51 GMT 55.761337 36.896336 37,000 150 445 0
2020-07-17 09:55:47 GMT 55.768478 36.889175 37,000 150 445 -64
2020-07-17 09:55:42 GMT 55.778549 36.879272 37,025 150 445 -64
2020-07-17 09:55:39 GMT 55.782852 36.874947 37,025 150 445 -64
2020-07-17 09:55:36 GMT 55.787411 36.870461 37,025 150 445 -64
2020-07-17 09:55:33 GMT 55.792694 36.865124 37,025 150 446 0
2020-07-17 09:55:28 GMT 55.807251 36.850639 37,025 150 446 0
2020-07-17 09:55:22 GMT 55.812836 36.845146 37,025 150 446 0
2020-07-17 09:55:19 GMT 55.819019 36.838963 37,025 150 447 0
2020-07-17 09:55:16 GMT 55.826237 36.831753 37,025 150 447 -64
2020-07-17 09:55:08 GMT 55.838291 36.819820 37,025 150 446 0
2020-07-17 09:55:05 GMT 55.844204 36.813896 37,025 150 448 0
2020-07-17 09:55:01 GMT 55.853119 36.805031 37,025 150 448 -64
2020-07-17 09:54:56 GMT 55.862408 36.795788 37,050 150 448 0
2020-07-17 09:54:53 GMT 55.865936 36.792297 37,050 150 448 0
2020-07-17 09:54:47 GMT 55.875443 36.782825 37,050 150 449 0
2020-07-17 09:54:44 GMT 55.894501 36.763832 37,050 150 449 0
2020-07-17 09:54:37 GMT 55.894501 36.763832 37,025 150 449 0
2020-07-17 09:54:33 GMT 55.900394 36.758022 37,050 150 449 0
2020-07-17 09:54:30 GMT 55.907421 36.750984 37,050 150 449 0
2020-07-17 09:54:27 GMT 55.912399 36.746021 37,050 150 450 0
2020-07-17 09:54:23 GMT 55.920181 36.738281 37,025 150 450 0
2020-07-17 09:54:18 GMT 55.930710 36.727795 37,025 150 450 0
2020-07-17 09:54:15 GMT 55.934422 36.724117 37,025 150 450 0
2020-07-17 09:54:12 GMT 55.939957 36.718555 37,025 150 450 0
2020-07-17 09:54:09 GMT 55.944756 36.713734 37,025 150 450 0
2020-07-17 09:54:05 GMT 55.952271 36.706238 37,025 150 450 0
2020-07-17 09:54:02 GMT 55.957169 36.701328 37,025 150 450 0
2020-07-17 09:53:57 GMT 55.966541 36.692020 37,025 150 451 0
2020-07-17 09:53:53 GMT 55.975948 36.682575 37,025 150 451 0
2020-07-17 09:53:48 GMT 55.982208 36.676357 37,025 150 451 0
2020-07-17 09:53:45 GMT 55.990585 36.668034 37,025 150 451 0
2020-07-17 09:53:42 GMT 55.994064 36.664623 37,025 150 451 64
2020-07-17 09:53:39 GMT 56.000381 36.658298 37,025 150 451 64
2020-07-17 09:53:35 GMT 56.008759 36.649975 37,025 150 451 0
2020-07-17 09:53:32 GMT 56.013107 36.645561 37,025 150 451 0
2020-07-17 09:53:26 GMT 56.023819 36.634827 37,025 150 450 0
2020-07-17 09:53:21 GMT 56.037598 36.620926 37,025 150 450 0
2020-07-17 09:53:18 GMT 56.037598 36.620926 37,025 150 451 0
2020-07-17 09:53:13 GMT 56.046661 36.611855 37,025 150 451 0
2020-07-17 09:53:10 GMT 56.053940 36.604614 37,025 150 451 0
2020-07-17 09:53:04 GMT 56.066071 36.592381 37,025 150 451 64
2020-07-17 09:53:01 GMT 56.067982 36.590481 37,025 150 451 64
2020-07-17 09:52:58 GMT 56.074081 36.584305 37,000 150 451 64
2020-07-17 09:52:54 GMT 56.085846 36.572403 37,000 150 451 0
2020-07-17 09:52:48 GMT 56.093353 36.564816 37,000 150 451 0
2020-07-17 09:52:44 GMT 56.100800 36.557262 37,000 150 451 0
2020-07-17 09:52:40 GMT 56.106308 36.551682 37,000 150 451 0
2020-07-17 09:52:37 GMT 56.111389 36.546520 37,000 150 451 0
2020-07-17 09:52:33 GMT 56.118622 36.539196 37,000 150 450 0
2020-07-17 09:52:30 GMT 56.124496 36.533146 37,000 150 450 0
2020-07-17 09:52:27 GMT 56.129837 36.527794 37,000 150 450 0
2020-07-17 09:52:23 GMT 56.138535 36.518970 37,000 150 450 64
2020-07-17 09:52:19 GMT 56.154709 36.502590 36,975 150 451 64
2020-07-17 09:52:14 GMT 56.154709 36.502590 36,975 150 450 64
2020-07-17 09:52:11 GMT 56.172729 36.484348 36,975 150 450 64
2020-07-17 09:52:04 GMT 56.172729 36.484348 36,975 150 450 64
2020-07-17 09:52:01 GMT 56.183212 36.473778 36,975 150 449 64
2020-07-17 09:51:57 GMT 56.183212 36.473778 36,975 150 449 64
2020-07-17 09:51:52 GMT 56.193626 36.463280 36,975 150 449 0
2020-07-17 09:51:43 GMT 56.209442 36.447392 36,975 150 449 0
2020-07-17 09:51:40 GMT 56.215759 36.440987 36,975 150 450 0
2020-07-17 09:51:34 GMT 56.226608 36.429996 36,975 150 450 0
2020-07-17 09:51:31 GMT 56.235626 36.420841 36,975 150 449 0
2020-07-17 09:51:20 GMT 56.250229 36.406029 36,975 150 449 0
2020-07-17 09:51:17 GMT 56.255402 36.400883 36,975 150 448 0
2020-07-17 09:51:11 GMT 56.266113 36.389965 36,975 150 448 -64
2020-07-17 09:51:02 GMT 56.284332 36.371571 36,975 150 449 0
2020-07-17 09:50:58 GMT 56.290833 36.364998 36,975 150 449 -64
2020-07-17 09:50:51 GMT 56.302917 36.352676 36,975 150 449 -128
2020-07-17 09:50:40 GMT 56.323242 36.331955 37,000 150 449 0
2020-07-17 09:50:31 GMT 56.338123 36.316769 37,000 150 448 0
2020-07-17 09:50:28 GMT 56.345032 36.309731 37,000 150 448 0
2020-07-17 09:50:22 GMT 56.356201 36.298244 37,000 150 449 0
2020-07-17 09:50:19 GMT 56.361492 36.292820 37,000 150 449 0
2020-07-17 09:50:10 GMT 56.376709 36.277187 37,000 150 449 -64
2020-07-17 09:50:06 GMT 56.386230 36.267368 37,000 150 449 0
2020-07-17 09:49:59 GMT 56.396851 36.256382 37,000 150 450 0
2020-07-17 09:49:55 GMT 56.404133 36.248875 37,000 150 450 0
2020-07-17 09:49:50 GMT 56.414608 36.238148 37,000 150 450 0
2020-07-17 09:49:42 GMT 56.428665 36.223640 37,000 150 450 0
2020-07-17 09:49:39 GMT 56.432556 36.219677 37,000 150 450 0
2020-07-17 09:49:36 GMT 56.456177 36.195374 37,000 150 450 0
2020-07-17 09:49:26 GMT 56.456177 36.195374 37,000 150 450 0
2020-07-17 09:49:15 GMT 56.476151 36.174717 37,000 150 451 0
2020-07-17 09:49:08 GMT 56.490257 36.160126 37,000 150 451 0
2020-07-17 09:49:05 GMT 56.493759 36.156506 37,000 150 451 0
2020-07-17 09:48:56 GMT 56.511948 36.137638 37,000 150 451 64
2020-07-17 09:48:45 GMT 56.529640 36.119183 37,000 150 453 0
2020-07-17 09:48:40 GMT 56.549332 36.098827 37,000 150 453 0
2020-07-17 09:48:34 GMT 56.549332 36.098827 37,000 150 453 0
2020-07-17 09:48:28 GMT 56.562195 36.085426 37,000 150 452 0
2020-07-17 09:48:24 GMT 56.568008 36.079433 37,000 150 452 0
2020-07-17 09:48:17 GMT 56.582153 36.064705 37,000 150 453 0
2020-07-17 09:48:02 GMT 56.607742 36.038158 37,025 150 454 -64
2020-07-17 09:47:56 GMT 56.618366 36.027096 37,000 150 455 0
2020-07-17 09:47:46 GMT 56.638458 36.006229 37,000 150 455 0
2020-07-17 09:47:42 GMT 56.646019 35.998386 37,000 150 455 0
2020-07-17 09:47:34 GMT 56.659100 35.984741 37,000 150 455 0
2020-07-17 09:47:25 GMT 56.677963 35.965118 37,000 150 455 64
2020-07-17 09:47:16 GMT 56.693298 35.949242 37,000 150 456 64
2020-07-17 09:47:03 GMT 56.716278 35.925205 37,000 150 456 0
2020-07-17 09:46:53 GMT 56.734497 35.906067 37,000 149 456 0
2020-07-17 09:46:45 GMT 56.749180 35.890652 36,975 150 456 0
2020-07-17 09:46:42 GMT 56.753880 35.885601 37,000 150 456 0
2020-07-17 09:46:35 GMT 56.767868 35.870960 36,975 150 456 0
2020-07-17 09:46:22 GMT 56.790482 35.847187 37,000 149 457 -64
2020-07-17 09:46:12 GMT 56.808674 35.828011 37,000 150 456 0
2020-07-17 09:46:03 GMT 56.825478 35.810379 37,000 150 456 0
2020-07-17 09:45:53 GMT 56.843727 35.791153 37,000 149 457 64
2020-07-17 09:45:42 GMT 56.863220 35.770626 37,000 149 457 0
2020-07-17 09:45:33 GMT 56.882320 35.750397 37,000 149 459 -64
2020-07-17 09:45:23 GMT 56.899429 35.732262 37,000 149 459 0
2020-07-17 09:45:10 GMT 56.921608 35.708668 37,000 149 459 0
2020-07-17 09:45:01 GMT 56.937973 35.691147 37,000 149 459 0
2020-07-17 09:44:55 GMT 56.949959 35.678368 37,000 149 459 0
2020-07-17 09:44:51 GMT 56.956196 35.671722 37,000 149 460 0
2020-07-17 09:44:42 GMT 56.974911 35.651875 37,025 149 460 0
2020-07-17 09:44:36 GMT 56.986645 35.639469 37,025 149 460 0
2020-07-17 09:44:31 GMT 56.994137 35.631409 37,025 149 460 0
2020-07-17 09:44:20 GMT 57.013039 35.611298 37,025 149 460 0
2020-07-17 09:44:10 GMT 57.031906 35.591328 37,025 150 460 0
2020-07-17 09:44:01 GMT 57.051117 35.570984 37,000 149 461 0
2020-07-17 09:43:48 GMT 57.073044 35.547771 37,025 149 461 0
2020-07-17 09:43:40 GMT 57.087753 35.532001 37,000 149 461 0
2020-07-17 09:43:25 GMT 57.113708 35.503948 37,000 149 461 0
2020-07-17 09:43:19 GMT 57.128036 35.488415 37,025 149 462 -64
2020-07-17 09:43:09 GMT 57.144379 35.470734 37,025 149 462 0
2020-07-17 09:42:50 GMT 57.180954 35.431507 37,025 149 462 0
2020-07-17 09:42:11 GMT 57.249989 35.356930 37,000 149 462 0
2020-07-17 09:42:05 GMT 57.263210 35.342575 37,000 149 462 0
2020-07-17 09:41:56 GMT 57.277363 35.327160 37,000 149 462 0
2020-07-17 09:41:46 GMT 57.295761 35.306969 37,000 149 461 -64
2020-07-17 09:41:36 GMT 57.313812 35.287201 37,000 149 461 0
2020-07-17 09:41:27 GMT 57.332382 35.266888 37,000 149 461 0
2020-07-17 09:41:16 GMT 57.351379 35.246265 37,025 149 460 0
2020-07-17 09:41:04 GMT 57.373726 35.221992 37,025 149 460 64
2020-07-17 09:40:56 GMT 57.388947 35.205421 37,000 149 460 -64
2020-07-17 09:40:46 GMT 57.408279 35.184319 37,000 149 460 -64
2020-07-17 09:40:34 GMT 57.428329 35.162540 37,025 149 460 64
2020-07-17 09:40:24 GMT 57.446068 35.143227 37,000 149 460 0
2020-07-17 09:40:15 GMT 57.464409 35.123203 37,000 149 460 0
2020-07-17 09:40:04 GMT 57.483124 35.102692 37,025 149 460 0
2020-07-17 09:39:54 GMT 57.501835 35.082092 37,025 149 459 64
2020-07-17 09:39:43 GMT 57.521900 35.060032 37,000 149 459 0
2020-07-17 09:39:34 GMT 57.539265 35.040981 37,000 149 460 0
2020-07-17 09:39:22 GMT 57.559143 35.019096 37,000 149 459 -64
2020-07-17 09:39:12 GMT 57.577423 34.998837 37,025 149 459 64
2020-07-17 09:39:02 GMT 57.595642 34.978752 37,000 149 459 64
2020-07-17 09:38:52 GMT 57.616123 34.956104 37,000 149 459 0
2020-07-17 09:38:48 GMT 57.621384 34.950256 37,000 149 459 -64
2020-07-17 09:38:42 GMT 57.633316 34.937122 37,000 149 459 -64
2020-07-17 09:38:38 GMT 57.639771 34.929966 37,000 149 458 64
2020-07-17 09:38:31 GMT 57.652477 34.915878 37,000 149 458 128
2020-07-17 09:38:27 GMT 57.659637 34.907944 37,000 149 458 64
2020-07-17 09:38:22 GMT 57.670448 34.896034 37,000 149 457 64
2020-07-17 09:38:11 GMT 57.688843 34.875500 37,000 149 457 -64
2020-07-17 09:38:08 GMT 57.707413 34.854748 37,000 148 456 64
2020-07-17 09:38:01 GMT 57.707413 34.854748 37,000 148 457 -64
2020-07-17 09:37:50 GMT 57.726170 34.833660 37,000 148 456 64
2020-07-17 09:37:41 GMT 57.744606 34.812927 37,000 148 456 64
2020-07-17 09:37:29 GMT 57.764328 34.790688 37,000 149 457 -64
2020-07-17 09:37:19 GMT 57.782410 34.770401 37,000 148 456 0
2020-07-17 09:37:09 GMT 57.800701 34.749847 37,000 149 457 0
2020-07-17 09:37:00 GMT 57.818390 34.729980 36,975 148 456 64
2020-07-17 09:36:49 GMT 57.837337 34.708649 37,000 148 456 0
2020-07-17 09:36:38 GMT 57.856472 34.687134 37,000 148 456 0
2020-07-17 09:36:31 GMT 57.869831 34.672119 37,000 149 455 0
2020-07-17 09:36:28 GMT 57.874420 34.666916 37,000 149 455 -64
2020-07-17 09:36:18 GMT 57.893246 34.645752 37,000 149 455 0
2020-07-17 09:36:11 GMT 57.907864 34.629456 37,000 149 456 64
2020-07-17 09:36:08 GMT 57.919693 34.616238 37,000 149 455 64
2020-07-17 09:35:57 GMT 57.930679 34.603920 36,975 148 456 0
2020-07-17 09:35:54 GMT 57.936081 34.597809 36,975 148 456 0
2020-07-17 09:35:48 GMT 57.949158 34.583038 37,000 148 455 0
2020-07-17 09:35:34 GMT 57.971512 34.557495 37,000 148 455 0
2020-07-17 09:35:25 GMT 57.991192 34.535065 37,000 148 456 -64
2020-07-17 09:35:16 GMT 58.004505 34.519867 37,000 148 455 0
2020-07-17 09:35:11 GMT 58.013680 34.509430 37,000 148 456 0
2020-07-17 09:35:07 GMT 58.022232 34.499729 37,000 149 455 0
2020-07-17 09:34:59 GMT 58.034683 34.485641 37,000 148 456 0
2020-07-17 09:34:53 GMT 58.045853 34.473061 37,000 148 456 0
2020-07-17 09:34:43 GMT 58.064606 34.451569 37,000 148 455 0
2020-07-17 09:34:33 GMT 58.084625 34.428493 37,000 148 456 -64
2020-07-17 09:34:26 GMT 58.102688 34.407715 37,000 148 456 -64
2020-07-17 09:34:13 GMT 58.118885 34.389130 37,025 148 456 0
2020-07-17 09:34:02 GMT 58.137787 34.367615 37,025 148 456 0
2020-07-17 09:33:52 GMT 58.156036 34.346539 37,025 147 457 -64
2020-07-17 09:33:43 GMT 58.171211 34.328064 37,025 146 457 0
2020-07-17 09:33:40 GMT 58.178604 34.318455 37,025 144 457 0
2020-07-17 09:33:32 GMT 58.191090 34.301697 37,025 143 458 0
2020-07-17 09:33:23 GMT 58.205708 34.280640 37,000 141 459 0
2020-07-17 09:33:20 GMT 58.210464 34.273533 37,000 141 458 0
2020-07-17 09:33:11 GMT 58.226944 34.248459 37,000 141 458 0
2020-07-17 09:33:00 GMT 58.244247 34.222057 37,000 141 459 0
2020-07-17 09:32:52 GMT 58.258682 34.199982 37,000 141 458 64
2020-07-17 09:32:43 GMT 58.273315 34.177757 37,000 141 459 0
2020-07-17 09:32:30 GMT 58.292526 34.148438 37,000 141 459 64
2020-07-17 09:32:21 GMT 58.308865 34.123444 36,975 141 459 0
2020-07-17 09:32:10 GMT 58.326233 34.096779 36,975 141 459 0
2020-07-17 09:32:01 GMT 58.343216 34.070641 37,000 141 459 0
2020-07-17 09:31:50 GMT 58.359970 34.044769 37,000 140 459 -64
2020-07-17 09:31:39 GMT 58.376587 34.019077 37,000 141 459 0
2020-07-17 09:31:30 GMT 58.392700 33.994270 37,000 141 459 0
2020-07-17 09:31:19 GMT 58.410507 33.966980 37,000 141 459 0
2020-07-17 09:31:10 GMT 58.426849 33.941906 37,000 141 459 0
2020-07-17 09:30:58 GMT 58.444099 33.915436 37,025 141 459 -64
2020-07-17 09:30:50 GMT 58.475197 33.867462 37,025 141 459 0
2020-07-17 09:30:40 GMT 58.475197 33.867462 37,025 140 459 0
2020-07-17 09:30:30 GMT 58.491577 33.842056 37,025 141 459 64
2020-07-17 09:30:19 GMT 58.508667 33.815735 37,000 141 460 64
2020-07-17 09:30:09 GMT 58.526733 33.787830 37,000 141 460 -64
2020-07-17 09:29:58 GMT 58.543255 33.762177 37,000 140 459 0
2020-07-17 09:29:48 GMT 58.559464 33.736889 37,000 140 459 64
2020-07-17 09:29:39 GMT 58.575611 33.711639 37,000 140 459 0
2020-07-17 09:29:33 GMT 58.585480 33.696259 37,000 140 459 0
2020-07-17 09:29:28 GMT 58.592148 33.685856 37,000 140 459 0
2020-07-17 09:29:19 GMT 58.610092 33.657944 37,000 140 459 0
2020-07-17 09:29:06 GMT 58.629318 33.627998 37,000 140 459 0
2020-07-17 09:28:58 GMT 58.642639 33.607178 37,000 141 459 -64
2020-07-17 09:28:48 GMT 58.659496 33.580994 37,000 140 459 -64
2020-07-17 09:28:37 GMT 58.676376 33.554726 37,000 141 459 64
2020-07-17 09:28:28 GMT 58.692455 33.529907 37,000 141 459 64
2020-07-17 09:28:25 GMT 58.697021 33.522919 37,000 141 459 0
2020-07-17 09:28:16 GMT 58.714233 33.495983 37,000 140 458 0
2020-07-17 09:28:07 GMT 58.726112 33.476898 37,000 139 457 0
2020-07-17 09:28:04 GMT 58.731171 33.468609 37,000 139 457 0
2020-07-17 09:27:56 GMT 58.743107 33.448975 37,000 139 457 0
2020-07-17 09:27:46 GMT 58.758980 33.422882 37,000 139 457 -64
2020-07-17 09:27:36 GMT 58.775227 33.396240 37,025 139 458 -64
2020-07-17 09:27:27 GMT 58.791321 33.369644 37,025 139 458 0
2020-07-17 09:27:16 GMT 58.808277 33.341583 37,000 139 459 64
2020-07-17 09:27:06 GMT 58.824463 33.314888 36,975 139 461 0
2020-07-17 09:26:56 GMT 58.840725 33.288025 36,975 139 461 448
2020-07-17 09:26:46 GMT 58.857063 33.261108 36,875 139 460 960
2020-07-17 09:26:36 GMT 58.873993 33.233185 36,675 139 462 960
2020-07-17 09:26:25 GMT 58.890518 33.205811 36,525 139 463 960
2020-07-17 09:26:15 GMT 58.906723 33.178894 36,350 139 463 960
2020-07-17 09:26:04 GMT 58.923477 33.150787 36,200 139 463 960
2020-07-17 09:25:54 GMT 58.939636 33.123779 36,025 139 463 1024
2020-07-17 09:25:45 GMT 58.956619 33.095398 35,850 139 462 960
2020-07-17 09:25:34 GMT 58.972702 33.068470 35,700 139 462 960
2020-07-17 09:25:24 GMT 58.988892 33.041382 35,500 139 462 1408
2020-07-17 09:25:13 GMT 59.006081 33.012493 35,250 139 464 1408
2020-07-17 09:25:03 GMT 59.022217 32.985352 35,000 139 467 1408
2020-07-17 09:24:53 GMT 59.038879 32.957336 34,775 138 469 1472
2020-07-17 09:24:44 GMT 59.055038 32.929962 34,550 138 471 1344
2020-07-17 09:24:33 GMT 59.072182 32.901024 34,300 139 471 1664
2020-07-17 09:24:23 GMT 59.089127 32.872513 34,050 139 472 1152
2020-07-17 09:24:13 GMT 59.105896 32.844360 33,925 139 471 576
2020-07-17 09:24:02 GMT 59.122879 32.815521 33,825 138 468 640
2020-07-17 09:23:52 GMT 59.138992 32.788239 33,650 138 467 1344
2020-07-17 09:23:42 GMT 59.155884 32.759583 33,375 138 468 1664
2020-07-17 09:23:32 GMT 59.172409 32.731396 33,100 138 469 1728
2020-07-17 09:23:21 GMT 59.189301 32.702545 32,800 138 471 1600
2020-07-17 09:23:12 GMT 59.205872 32.674438 32,575 138 471 1216
2020-07-17 09:23:01 GMT 59.222397 32.646240 32,375 138 471 1664
2020-07-17 09:22:51 GMT 59.238701 32.618408 32,075 138 472 1600
2020-07-17 09:22:41 GMT 59.255459 32.589806 31,800 138 473 1792
2020-07-17 09:22:30 GMT 59.272797 32.559998 31,500 138 475 1472
2020-07-17 09:22:20 GMT 59.289093 32.531982 31,275 138 474 1344
2020-07-17 09:22:11 GMT 59.305923 32.502956 31,050 138 474 1152
2020-07-17 09:22:00 GMT 59.323006 32.473694 30,875 138 474 1280
2020-07-17 09:21:50 GMT 59.339207 32.445751 30,650 138 471 1152
2020-07-17 09:21:40 GMT 59.355560 32.417450 30,450 138 470 1088
2020-07-17 09:21:29 GMT 59.372543 32.387970 30,275 138 468 960
2020-07-17 09:21:19 GMT 59.388599 32.360039 30,100 138 466 1024
2020-07-17 09:21:10 GMT 59.405914 32.330017 29,925 138 463 1024
2020-07-17 09:20:59 GMT 59.420860 32.303879 29,750 138 461 1216
2020-07-17 09:20:49 GMT 59.437134 32.275543 29,525 138 459 1280
2020-07-17 09:20:39 GMT 59.453354 32.247334 29,300 138 458 1344
2020-07-17 09:20:29 GMT 59.469086 32.219971 29,075 138 456 1408
2020-07-17 09:20:18 GMT 59.485615 32.190887 28,825 137 454 1152
2020-07-17 09:20:09 GMT 59.500214 32.161102 28,650 130 453 1280
2020-07-17 09:19:58 GMT 59.513592 32.127811 28,375 125 451 1792
2020-07-17 09:19:47 GMT 59.525436 32.091431 28,050 119 451 1792
2020-07-17 09:19:38 GMT 59.534271 32.057465 27,800 114 451 1536
2020-07-17 09:19:27 GMT 59.542500 32.015770 27,550 107 447 1088
2020-07-17 09:19:18 GMT 59.548134 31.976749 27,350 103 444 1664
2020-07-17 09:19:07 GMT 59.552765 31.938080 27,075 103 444 1856
2020-07-17 09:18:57 GMT 59.557537 31.897383 26,800 103 443 1472
2020-07-17 09:18:46 GMT 59.562378 31.855900 26,475 102 441 1664
2020-07-17 09:18:36 GMT 59.566910 31.817505 26,200 103 439 1536
2020-07-17 09:18:27 GMT 59.571304 31.779877 25,975 102 435 1600
2020-07-17 09:18:17 GMT 59.576019 31.739122 25,625 102 435 2048
2020-07-17 09:18:06 GMT 59.580597 31.699585 25,275 102 434 2048
2020-07-17 09:17:55 GMT 59.585140 31.660040 25,000 102 434 1600
2020-07-17 09:17:46 GMT 59.589478 31.622681 24,825 102 430 1152
2020-07-17 09:17:35 GMT 59.594055 31.582855 24,575 102 425 1472
2020-07-17 09:17:26 GMT 59.598633 31.542938 24,250 102 422 1984
2020-07-17 09:17:15 GMT 59.602737 31.507179 23,975 102 422 2048
2020-07-17 09:17:05 GMT 59.607021 31.469769 23,675 102 419 1664
2020-07-17 09:16:57 GMT 59.610607 31.438231 23,425 102 417 1536
2020-07-17 09:16:54 GMT 59.611492 31.430464 23,350 102 416 1600
2020-07-17 09:16:47 GMT 59.614792 31.401215 23,125 102 412 1728
2020-07-17 09:16:44 GMT 59.615662 31.393524 23,075 102 412 1856
2020-07-17 09:16:34 GMT 59.619827 31.356537 22,700 102 410 2368
2020-07-17 09:16:25 GMT 59.624176 31.318176 22,325 102 410 2048
2020-07-17 09:16:14 GMT 59.628296 31.281580 22,050 102 408 1920
2020-07-17 09:16:04 GMT 59.632324 31.245300 21,675 102 405 1856
2020-07-17 09:15:56 GMT 59.635559 31.216326 21,425 102 402 1792
2020-07-17 09:15:53 GMT 59.636723 31.205908 21,325 102 401 1856
2020-07-17 09:15:46 GMT 59.639557 31.180115 21,100 102 399 2112
2020-07-17 09:15:42 GMT 59.641376 31.163952 21,025 102 398 2240
2020-07-17 09:15:33 GMT 59.644730 31.133928 20,600 102 397 2240
2020-07-17 09:15:25 GMT 59.647568 31.108246 20,350 102 396 2112
2020-07-17 09:15:22 GMT 59.648758 31.097351 20,250 102 395 2112
2020-07-17 09:15:15 GMT 59.651688 31.071075 19,975 102 393 2240
2020-07-17 09:15:12 GMT 59.652649 31.062286 19,875 102 392 2240
2020-07-17 09:15:05 GMT 59.655483 31.036282 19,600 102 391 2368
2020-07-17 09:15:01 GMT 59.656879 31.023781 19,475 102 391 2496
2020-07-17 09:14:55 GMT 59.659348 31.001808 19,175 102 390 2368
2020-07-17 09:14:52 GMT 59.660339 30.992981 19,075 102 390 2304
2020-07-17 09:14:45 GMT 59.663258 30.966480 18,800 102 387 2112
2020-07-17 09:14:41 GMT 59.664886 30.951990 18,700 102 386 2048
2020-07-17 09:14:32 GMT 59.668240 30.921494 18,325 102 383 2368
2020-07-17 09:14:22 GMT 59.671921 30.887512 17,900 102 380 2432
2020-07-17 09:14:14 GMT 59.674713 30.862152 17,625 102 379 2496
2020-07-17 09:14:04 GMT 59.678467 30.828003 17,200 102 377 2560
2020-07-17 09:13:54 GMT 59.682266 30.793121 16,750 102 375 2624
2020-07-17 09:13:43 GMT 59.685928 30.759541 16,325 102 373 2368
2020-07-17 09:13:33 GMT 59.689636 30.725098 15,925 102 370 2432
2020-07-17 09:13:23 GMT 59.693192 30.692013 15,500 102 367 2432
2020-07-17 09:13:13 GMT 59.696682 30.659716 15,100 102 364 2688
2020-07-17 09:13:02 GMT 59.700485 30.624207 14,575 102 362 2752
2020-07-17 09:12:52 GMT 59.703991 30.592094 14,100 101 360 2816
2020-07-17 09:12:43 GMT 59.707340 30.560650 13,675 101 358 2624
2020-07-17 09:12:32 GMT 59.710739 30.528534 13,225 101 355 2560
2020-07-17 09:12:22 GMT 59.714401 30.494202 12,725 101 349 2816
2020-07-17 09:12:12 GMT 59.717651 30.463257 12,275 101 348 3072
2020-07-17 09:12:01 GMT 59.720993 30.431488 11,775 101 347 2816
2020-07-17 09:11:51 GMT 59.724152 30.400635 11,350 101 341 2112
2020-07-17 09:11:41 GMT 59.727356 30.369598 11,075 101 331 1280
2020-07-17 09:11:31 GMT 59.730286 30.341034 10,900 101 315 1216
2020-07-17 09:11:21 GMT 59.733227 30.312511 10,675 101 303 1408
2020-07-17 09:11:11 GMT 59.736099 30.284729 10,350 101 292 2560
2020-07-17 09:11:01 GMT 59.738708 30.259552 9,825 101 288 3200
2020-07-17 09:10:50 GMT 59.741650 30.231440 9,250 101 285 3264
2020-07-17 09:10:40 GMT 59.744350 30.205868 8,700 101 284 3328
2020-07-17 09:10:30 GMT 59.747086 30.180359 8,200 102 282 3456
2020-07-17 09:10:20 GMT 59.749657 30.155954 7,575 101 281 3520
2020-07-17 09:10:09 GMT 59.752403 30.128300 6,950 100 278 3072
2020-07-17 09:09:59 GMT 59.754776 30.103088 6,475 102 273 2496
2020-07-17 09:09:50 GMT 59.758316 30.081039 6,175 117 268 1792
2020-07-17 09:09:40 GMT 59.765533 30.060961 5,875 134 262 1984
2020-07-17 09:09:29 GMT 59.775402 30.045902 5,400 153 258 3200
2020-07-17 09:09:19 GMT 59.787003 30.038635 4,825 174 259 3136
2020-07-17 09:09:08 GMT 59.799282 30.040600 4,375 197 252 2176
2020-07-17 09:08:59 GMT 59.808792 30.050171 4,075 220 237 1792
2020-07-17 09:08:47 GMT 59.816574 30.069672 3,800 247 217 960
2020-07-17 09:08:38 GMT 59.818321 30.086344 3,650 272 197 960
2020-07-17 09:08:28 GMT 59.816925 30.103107 3,475 286 180 1152
2020-07-17 09:08:18 GMT 59.814697 30.119110 3,250 286 169 1536
2020-07-17 09:08:07 GMT 59.812546 30.134583 2,900 286 166 2112

Making use of Plane Finder data

You are free to use the raw flight data, aircraft information and images provided in this report for your own purposes provided the data is correctly attributed to Plane Finder. We ask that you please credit Plane Finder and link to planefinder.net in close proximity to the content.

Optionally one of the following logos (no smaller then 150x24px) can be used and must link to planefinder.net

Embedding the Plane Finder map

You are welcome to embed the Plane Finder playback map on your website to offer visitors a more interactive experience. We suggest using the following HTML code:

<iframe src="//planefinder.net/data/report/SU6565-VQ-BAR-7700-squawk-2020-07-17/map" width="800" height="600" seamless="seamless"></iframe>

Where our data comes from

Plane Finder has a global network of data feeds and antenna radars that receive data broadcast directly from aircraft. The primary technologies used are ADS-B and MLAT. We also show feeds from the FAA and a FLARM glider feed.

Click here to find out more about the Plane Finder network.

How we collect our data